M I D A S
Marine Information and Data Acquisition System
Tripno 709 of the Zeeleeuw from 2004-05-06 07:29:35 to 2004-05-06 13:38:23
Back to CruiseResearch ActivitiesStationsMapUnderway DataData graphs

EquipmentUnitsComment
TimeDGPSUTC
LatitudeDGPSDM.mWGS84
LongitudeDGPSDM.mWGS84
TemperatureSBE03/SBE38deg celciusITS90
ConductivitySBE21S/mITS90
SalinitySBE21 Practical Salinity Units
ChlorophylAChelsea fluorimeterg/lCalibrated in Aceton
Missing or incorrect values are displayed as -999
Sea surface data collected by the RV Zeeleeuw from 2004-05-06 07:29:35 to 2004-05-06 13:38:23
                                                                                    Next 1000 lines
Time Latitude Longitude Temperature Conductivity Salinity ChlorophylA
2004-05-06 07:29:45 51°13.594 2°56.1 18.210926 4.386738 33.670085 18.466819
2004-05-06 07:29:50 51°13.592 2°56.103 18.215824 4.386738 33.670085 18.3994
2004-05-06 07:29:55 51°13.591 2°56.106 18.236203 4.386632 33.66918 18.43311
2004-05-06 07:30:00 51°13.589 2°56.109 18.212711 4.386632 33.66918 18.365691
2004-05-06 07:30:05 51°13.587 2°56.113 18.204865 4.386738 33.670085 18.43311
2004-05-06 07:30:10 51°13.586 2°56.118 18.204865 4.386738 33.670085 18.43311
2004-05-06 07:30:15 51°13.584 2°56.122 18.20611 4.386632 33.669787 18.3994
2004-05-06 07:30:20 51°13.582 2°56.126 18.209598 4.386632 33.669787 18.43311
2004-05-06 07:30:25 51°13.58 2°56.13 18.211217 4.386632 33.669787 18.43311
2004-05-06 07:30:30 51°13.578 2°56.135 18.212213 4.386527 33.668881 18.466819
2004-05-06 07:30:36 51°13.575 2°56.142 18.212213 4.386527 33.668881 18.466819
2004-05-06 07:30:40 51°13.574 2°56.146 18.21242 4.386527 33.668881 18.3994
2004-05-06 07:30:45 51°13.571 2°56.153 18.214911 4.386632 33.670393 18.3994
2004-05-06 07:30:50 51°13.569 2°56.16 18.213126 4.386632 33.670393 18.3994
2004-05-06 07:30:55 51°13.567 2°56.167 18.210262 4.386527 33.669488 18.3994
2004-05-06 07:31:00 51°13.565 2°56.174 18.2113 4.386527 33.670095 18.365691
2004-05-06 07:31:05 51°13.563 2°56.181 18.2113 4.386527 33.670095 18.365691
2004-05-06 07:31:10 51°13.561 2°56.187 18.210386 4.386632 33.670393 18.365691
2004-05-06 07:31:16 51°13.559 2°56.195 18.210552 4.386632 33.670393 18.331982
2004-05-06 07:31:20 51°13.557 2°56.201 18.251847 4.386632 33.671 18.43311
2004-05-06 07:31:25 51°13.555 2°56.208 18.213541 4.386527 33.669488 19.747777
2004-05-06 07:31:30 51°13.551 2°56.214 18.198014 4.386632 33.669787 19.54552
2004-05-06 07:31:35 51°13.548 2°56.221 18.198014 4.386632 33.669787 19.54552
2004-05-06 07:31:40 51°13.545 2°56.226 18.169856 4.386527 33.668881 20.961315
2004-05-06 07:31:45 51°13.541 2°56.231 18.190041 4.386527 33.669488 20.927606
2004-05-06 07:31:50 51°13.536 2°56.236 18.190581 4.386527 33.670095 21.062443
2004-05-06 07:31:55 51°13.532 2°56.239 18.200505 4.386421 33.669189 20.792768
2004-05-06 07:32:00 51°13.528 2°56.242 18.209639 4.386421 33.67101 19.714067
2004-05-06 07:32:06 51°13.525 2°56.245 18.193571 4.386421 33.67101 19.410683
2004-05-06 07:32:10 51°13.523 2°56.246 18.193571 4.386421 33.67101 19.410683
2004-05-06 07:32:15 51°13.522 2°56.248 18.238237 4.386422 33.671616 18.736494
2004-05-06 07:32:20 51°13.521 2°56.248 18.184186 4.386421 33.67101 18.365691
2004-05-06 07:32:26 51°13.521 2°56.248 18.219934 4.386316 33.670711 18.298272
2004-05-06 07:32:30 51°13.522 2°56.248 18.210843 4.386422 33.671616 18.500529
2004-05-06 07:32:36 51°13.523 2°56.248 18.217236 4.386316 33.671318 18.43311
2004-05-06 07:32:40 51°13.525 2°56.248 18.217236 4.386316 33.671318 18.43311
2004-05-06 07:32:46 51°13.528 2°56.248 18.249191 4.386316 33.671318 18.567947
2004-05-06 07:32:51 51°13.53 2°56.248 18.246868 4.386316 33.671318 18.500529
2004-05-06 07:32:56 51°13.532 2°56.248 18.248984 4.386316 33.670711 18.770204
2004-05-06 07:33:01 51°13.534 2°56.248 18.309369 4.386422 33.672223 18.871332
2004-05-06 07:33:06 51°13.535 2°56.247 18.376991 4.386422 33.671616 18.702785
2004-05-06 07:33:11 51°13.534 2°56.247 18.376991 4.386422 33.671616 18.702785
2004-05-06 07:33:16 51°13.532 2°56.246 18.36908 4.386316 33.670104 18.466819
2004-05-06 07:33:21 51°13.53 2°56.246 18.271178 4.386211 33.667985 18.567947
2004-05-06 07:33:26 51°13.528 2°56.244 18.239689 4.386316 33.668284 18.365691
2004-05-06 07:33:31 51°13.526 2°56.243 18.244544 4.386211 33.667985 18.298272
2004-05-06 07:33:36 51°13.524 2°56.242 18.244544 4.386211 33.667985 18.298272
2004-05-06 07:33:41 51°13.524 2°56.241 18.251307 4.386211 33.669198 18.197144
2004-05-06 07:33:46 51°13.524 2°56.242 18.240187 4.415212 33.720955 20.253418
2004-05-06 07:33:51 51°13.525 2°56.243 17.593234 2.340843 16.53081 9.702375
2004-05-06 07:33:56 51°13.526 2°56.244 16.438151 2.704278 19.644262 49.176084
2004-05-06 07:34:01 51°13.527 2°56.246 15.462953 4.329327 31.141158 49.782853
2004-05-06 07:34:06 51°13.53 2°56.249 15.462953 4.329327 31.141158 49.782853
2004-05-06 07:34:11 51°13.531 2°56.252 14.734064 4.525696 31.555395 42.939845
2004-05-06 07:34:16 51°13.533 2°56.254 13.986105 4.616415 32.263204 34.107982
2004-05-06 07:34:21 51°13.535 2°56.256 13.810685 4.458536 32.612536 27.602067
2004-05-06 07:34:26 51°13.535 2°56.256 13.456327 4.118244 31.044842 29.085281
2004-05-06 07:34:31 51°13.535 2°56.254 13.315833 3.853334 29.660496 54.569589
2004-05-06 07:34:36 51°13.533 2°56.251 13.315833 3.853334 29.660496 54.569589
2004-05-06 07:34:40 51°13.532 2°56.247 13.25974 3.57671 27.875559 68.188187
2004-05-06 07:34:46 51°13.53 2°56.241 13.247015 3.4149 27.074633 68.120768
2004-05-06 07:34:51 51°13.53 2°56.235 13.187066 3.323793 26.603726 68.087059
2004-05-06 07:34:56 51°13.529 2°56.228 13.151884 3.28525 26.536327 68.01964
2004-05-06 07:35:00 51°13.529 2°56.223 13.165879 3.270825 26.604507 68.053349
2004-05-06 07:35:04 51°13.53 2°56.217 13.165879 3.270825 26.604507 68.053349
2004-05-06 07:35:10 51°13.531 2°56.21 13.140078 3.259874 26.609086 68.01964
2004-05-06 07:35:15 51°13.531 2°56.204 13.068349 3.273776 26.785112 68.01964
2004-05-06 07:35:20 51°13.533 2°56.198 13.016304 3.230389 26.446523 68.01964
2004-05-06 07:35:25 51°13.534 2°56.193 12.986636 3.210171 26.304407 68.01964
2004-05-06 07:35:30 51°13.535 2°56.187 12.990984 3.169315 25.958793 68.087059
2004-05-06 07:35:35 51°13.536 2°56.182 12.990984 3.169315 25.958793 68.087059
2004-05-06 07:35:40 51°13.538 2°56.178 13.003937 3.170473 25.993951 68.087059
2004-05-06 07:35:46 51°13.539 2°56.172 12.998469 3.217438 26.456734 68.087059
2004-05-06 07:35:50 51°13.54 2°56.169 13.016797 3.214911 26.458416 68.053349
2004-05-06 07:35:55 51°13.541 2°56.166 13.04681 3.260195 26.910636 68.053349
2004-05-06 07:36:00 51°13.542 2°56.164 13.04157 3.246399 26.798338 68.01964
2004-05-06 07:36:06 51°13.543 2°56.161 13.08988 3.23987 26.745811 68.01964
2004-05-06 07:36:10 51°13.544 2°56.16 13.08988 3.23987 26.745811 68.01964
2004-05-06 07:36:15 51°13.544 2°56.157 13.067632 3.214596 26.521703 68.053349
2004-05-06 07:36:20 51°13.545 2°56.156 13.061006 3.161209 26.033778 68.01964
2004-05-06 07:36:26 51°13.546 2°56.153 13.085315 3.153101 25.94842 67.98593
2004-05-06 07:36:30 51°13.547 2°56.152 13.050975 3.092876 25.390826 68.053349
2004-05-06 07:36:35 51°13.548 2°56.15 13.049139 3.082138 25.280696 68.01964
2004-05-06 07:36:40 51°13.548 2°56.148 13.049139 3.082138 25.280696 68.01964
2004-05-06 07:36:45 51°13.549 2°56.147 13.022801 3.072452 25.192514 68.053349
2004-05-06 07:36:50 51°13.55 2°56.145 13.059349 3.050344 24.994577 68.053349
2004-05-06 07:36:55 51°13.55 2°56.144 13.037405 3.066346 25.14696 68.053349
2004-05-06 07:37:00 51°13.551 2°56.142 13.020964 3.055187 25.049548 68.053349
2004-05-06 07:37:05 51°13.552 2°56.141 13.020964 3.055187 25.049548 68.053349
2004-05-06 07:37:10 51°13.553 2°56.139 13.009807 3.061609 25.117857 68.01964
2004-05-06 07:37:16 51°13.554 2°56.136 13.027505 3.056134 25.076451 67.98593
2004-05-06 07:37:20 51°13.555 2°56.134 13.015005 3.059082 25.100592 68.053349
2004-05-06 07:37:25 51°13.556 2°56.132 13.038166 3.060345 25.120708 68.01964
2004-05-06 07:37:30 51°13.557 2°56.129 13.000351 3.068768 25.202135 68.053349
2004-05-06 07:37:35 51°13.558 2°56.127 13.018634 3.076032 25.271069 68.053349
2004-05-06 07:37:40 51°13.559 2°56.124 13.018634 3.076032 25.271069 68.053349
2004-05-06 07:37:45 51°13.56 2°56.122 12.984529 3.063609 25.161525 68.01964
2004-05-06 07:37:50 51°13.561 2°56.12 12.97247 3.080243 25.312861 68.01964
2004-05-06 07:37:55 51°13.562 2°56.117 12.99941 3.085718 25.361493 68.053349
2004-05-06 07:38:00 51°13.563 2°56.115 12.952515 3.089192 25.397665 68.01964
2004-05-06 07:38:04 51°13.563 2°56.113 12.952515 3.089192 25.397665 68.01964
2004-05-06 07:38:10 51°13.564 2°56.11 12.97386 3.095825 25.459942 68.053349
2004-05-06 07:38:15 51°13.565 2°56.108 12.953188 3.096983 25.486014 68.01964
2004-05-06 07:38:20 51°13.565 2°56.106 12.946774 3.119409 25.697181 68.01964
2004-05-06 07:38:25 51°13.566 2°56.103 12.960453 3.136782 25.857913 68.01964
2004-05-06 07:38:30 51°13.567 2°56.101 12.970228 3.14489 25.937556 68.01964
2004-05-06 07:38:35 51°13.568 2°56.099 12.970228 3.14489 25.937556 68.01964
2004-05-06 07:38:40 51°13.568 2°56.097 12.964533 3.153102 26.017692 68.01964
2004-05-06 07:38:45 51°13.569 2°56.095 12.98184 3.158788 26.073779 68.01964
2004-05-06 07:38:50 51°13.569 2°56.092 12.965475 3.163843 26.122005 68.053349
2004-05-06 07:38:55 51°13.57 2°56.089 12.916671 3.160789 26.09362 68.053349
2004-05-06 07:39:00 51°13.571 2°56.086 12.922325 3.172477 26.19918 68.01964
2004-05-06 07:39:04 51°13.572 2°56.083 12.922325 3.172477 26.19918 68.01964
2004-05-06 07:39:10 51°13.574 2°56.078 12.899931 3.176583 26.232377 68.01964
2004-05-06 07:39:15 51°13.575 2°56.074 12.900111 3.183112 26.295175 68.01964
2004-05-06 07:39:20 51°13.577 2°56.069 12.894994 3.181006 26.281309 68.01964
2004-05-06 07:39:26 51°13.579 2°56.062 12.914113 3.185955 26.337779 68.053349
2004-05-06 07:39:30 51°13.581 2°56.057 12.897014 3.185429 26.344257 67.98593
2004-05-06 07:39:35 51°13.584 2°56.051 12.875375 3.189536 26.391492 68.01964
2004-05-06 07:39:40 51°13.587 2°56.043 12.875375 3.189536 26.391492 68.01964
2004-05-06 07:39:46 51°13.591 2°56.034 12.859164 3.193327 26.428859 68.01964
2004-05-06 07:39:50 51°13.594 2°56.028 12.87771 3.196065 26.457687 67.98593
2004-05-06 07:39:55 51°13.597 2°56.019 12.86846 3.202172 26.512493 68.053349
2004-05-06 07:40:00 51°13.601 2°56.01 12.884085 3.210281 26.592144 68.01964
2004-05-06 07:40:04 51°13.604 2°56.002 12.875869 3.218705 26.677476 67.98593
2004-05-06 07:40:08 51°13.608 2°55.995 12.875869 3.218705 26.677476 67.98593
2004-05-06 07:40:15 51°13.614 2°55.98 12.851663 3.227235 26.764405 67.98593
2004-05-06 07:40:19 51°13.617 2°55.972 12.85858 3.231447 26.805227 67.98593
2004-05-06 07:40:25 51°13.623 2°55.959 12.883457 3.232711 26.818463 67.98593
2004-05-06 07:40:30 51°13.628 2°55.948 12.897373 3.233448 26.824677 67.98593
2004-05-06 07:40:35 51°13.633 2°55.937 12.915729 3.231026 26.805201 68.053349
2004-05-06 07:40:40 51°13.638 2°55.925 12.915729 3.231026 26.805201 68.053349
2004-05-06 07:40:45 51°13.643 2°55.914 12.935156 3.228078 26.783633 68.053349
2004-05-06 07:40:50 51°13.648 2°55.902 12.95247 3.224392 26.75256 68.01964
2004-05-06 07:40:55 51°13.654 2°55.89 12.960856 3.213545 26.648723 68.01964
2004-05-06 07:41:00 51°13.659 2°55.879 12.9995 3.199224 26.507714 68.01964
2004-05-06 07:41:05 51°13.665 2°55.867 12.9995 3.199224 26.507714 68.01964
2004-05-06 07:41:10 51°13.67 2°55.855 13.030148 3.175742 26.280415 67.98593
2004-05-06 07:41:15 51°13.676 2°55.843 13.046318 3.146996 26.010283 68.01964
2004-05-06 07:41:20 51°13.682 2°55.831 13.05917 3.116041 25.716302 68.053349
2004-05-06 07:41:26 51°13.689 2°55.817 13.098831 3.073506 25.319227 68.053349
2004-05-06 07:41:30 51°13.694 2°55.808 13.098428 3.041818 25.018047 68.01964
2004-05-06 07:41:35 51°13.701 2°55.797 13.098428 3.041818 25.018047 68.01964
2004-05-06 07:41:40 51°13.707 2°55.786 13.081644 2.996342 24.58826 67.98593
2004-05-06 07:41:44 51°13.713 2°55.777 13.075377 2.96329 24.278018 68.01964
2004-05-06 07:41:50 51°13.722 2°55.764 13.068349 2.935187 24.009713 68.053349
2004-05-06 07:41:56 51°13.731 2°55.751 13.066603 2.901928 23.694242 68.053349
2004-05-06 07:42:00 51°13.737 2°55.743 13.045422 2.86362 23.343351 68.087059
2004-05-06 07:42:05 51°13.744 2°55.732 13.045422 2.86362 23.343351 68.087059
2004-05-06 07:42:10 51°13.752 2°55.722 13.051468 2.847519 23.195586 68.01964
2004-05-06 07:42:15 51°13.76 2°55.712 12.997797 2.840784 23.138017 68.053349
2004-05-06 07:42:20 51°13.768 2°55.702 13.000441 2.836785 23.103104 68.053349
2004-05-06 07:42:25 51°13.776 2°55.693 13.000979 2.819949 22.960151 68.01964
2004-05-06 07:42:30 51°13.785 2°55.684 12.997797 2.802797 22.813467 68.053349
2004-05-06 07:42:35 51°13.793 2°55.675 12.997797 2.802797 22.813467 68.053349
2004-05-06 07:42:40 51°13.802 2°55.666 13.031358 2.777649 22.592492 68.053349
2004-05-06 07:42:45 51°13.811 2°55.658 13.07399 2.744191 22.305594 68.053349
2004-05-06 07:42:50 51°13.82 2°55.65 13.128002 2.722623 22.123256 68.053349
2004-05-06 07:42:55 51°13.829 2°55.643 13.148396 2.718415 22.087014 68.01964
2004-05-06 07:43:00 51°13.839 2°55.636 13.116326 2.717573 22.0768 68.053349
2004-05-06 07:43:04 51°13.847 2°55.63 13.055543 2.726726 22.148198 68.01964
2004-05-06 07:43:10 51°13.859 2°55.621 13.055543 2.726726 22.148198 68.01964
2004-05-06 07:43:15 51°13.869 2°55.614 13.067856 2.702633 21.916677 68.053349
2004-05-06 07:43:20 51°13.88 2°55.606 13.073497 2.673072 21.637983 68.053349
2004-05-06 07:43:24 51°13.888 2°55.6 13.081465 2.672756 21.624203 67.98593
2004-05-06 07:43:31 51°13.902 2°55.589 13.033642 2.705368 21.916127 68.01964
2004-05-06 07:43:35 51°13.911 2°55.583 12.976953 2.752292 22.34848 67.98593
2004-05-06 07:43:40 51°13.921 2°55.576 12.976953 2.752292 22.34848 67.98593
2004-05-06 07:43:45 51°13.932 2°55.569 12.957538 2.803323 22.811689 68.053349
2004-05-06 07:43:50 51°13.942 2°55.561 12.895891 2.823421 22.989402 68.053349
2004-05-06 07:43:55 51°13.953 2°55.554 12.901682 2.859726 23.312666 67.98593
2004-05-06 07:44:00 51°13.964 2°55.546 12.824078 2.91782 23.848867 68.053349
2004-05-06 07:44:06 51°13.977 2°55.537 12.829381 2.967921 24.320345 67.98593
2004-05-06 07:44:10 51°13.985 2°55.53 12.829381 2.967921 24.320345 67.98593
2004-05-06 07:44:15 51°13.996 2°55.522 12.777194 3.026238 24.870631 68.01964
2004-05-06 07:44:20 51°14.007 2°55.514 12.783355 3.07298 25.31909 68.053349
2004-05-06 07:44:25 51°14.018 2°55.506 12.791717 3.121305 25.781126 68.01964
2004-05-06 07:44:30 51°14.03 2°55.498 12.774496 3.170161 26.252996 68.01964
2004-05-06 07:44:35 51°14.041 2°55.491 12.774496 3.170161 26.252996 68.01964
2004-05-06 07:44:40 51°14.052 2°55.482 12.760555 3.209544 26.633292 68.01964
2004-05-06 07:44:46 51°14.066 2°55.472 12.776385 3.257565 27.096463 68.053349
2004-05-06 07:44:50 51°14.075 2°55.466 12.769145 3.282209 27.332281 68.053349
2004-05-06 07:44:56 51°14.089 2°55.456 12.786052 3.301166 27.513786 68.01964
2004-05-06 07:45:00 51°14.098 2°55.449 12.795628 3.306854 27.573603 68.01964
2004-05-06 07:45:05 51°14.11 2°55.44 12.801607 3.306854 27.575867 67.98593
2004-05-06 07:45:10 51°14.122 2°55.431 12.801607 3.306854 27.575867 67.98593
2004-05-06 07:45:16 51°14.136 2°55.42 12.800528 3.30085 27.519906 68.053349
2004-05-06 07:45:20 51°14.146 2°55.412 12.781061 3.285474 27.380896 68.01964
2004-05-06 07:45:26 51°14.161 2°55.399 12.774496 3.264621 27.187029 68.01964
2004-05-06 07:45:30 51°14.171 2°55.39 12.792391 3.238293 26.940216 68.01964
2004-05-06 07:45:35 51°14.183 2°55.378 12.792391 3.238293 26.940216 68.01964
2004-05-06 07:45:40 51°14.195 2°55.366 12.78875 3.227131 26.832043 67.98593
2004-05-06 07:45:46 51°14.21 2°55.35 12.792571 3.231027 26.86952 68.053349
2004-05-06 07:45:50 51°14.219 2°55.338 12.802326 3.24377 26.990601 67.98593
2004-05-06 07:45:56 51°14.233 2°55.321 12.808304 3.254617 27.09433 68.01964
2004-05-06 07:46:00 51°14.242 2°55.309 12.810731 3.25567 27.102915 68.01964
2004-05-06 07:46:05 51°14.253 2°55.293 12.810731 3.25567 27.102915 68.01964
2004-05-06 07:46:10 51°14.264 2°55.276 12.79347 3.243243 26.987417 67.98593
2004-05-06 07:46:15 51°14.274 2°55.258 12.799719 3.24061 26.962084 67.98593
2004-05-06 07:46:20 51°14.285 2°55.241 12.801068 3.238083 26.934963 67.98593
2004-05-06 07:46:24 51°14.293 2°55.226 12.811361 3.233554 26.891659 67.98593
2004-05-06 07:46:30 51°14.305 2°55.204 12.806866 3.23545 26.906332 68.01964
2004-05-06 07:46:36 51°14.316 2°55.181 12.807181 3.235345 26.905915 68.053349
2004-05-06 07:46:40 51°14.323 2°55.165 12.807181 3.235345 26.905915 68.053349
2004-05-06 07:46:44 51°14.33 2°55.149 12.818731 3.234713 26.902863 67.98593
2004-05-06 07:46:50 51°14.341 2°55.124 12.811361 3.237767 26.929295 68.01964
2004-05-06 07:46:55 51°14.35 2°55.104 12.805338 3.240294 26.949778 67.98593
2004-05-06 07:47:00 51°14.359 2°55.084 12.799854 3.241242 26.959048 67.98593
2004-05-06 07:47:05 51°14.368 2°55.064 12.772428 3.244928 26.99074 67.98593
2004-05-06 07:47:10 51°14.377 2°55.043 12.772428 3.244928 26.99074 67.98593
2004-05-06 07:47:15 51°14.385 2°55.021 12.741436 3.235345 26.900949 67.98593
2004-05-06 07:47:19 51°14.392 2°55.003 12.732797 3.24735 27.013576 68.01964
2004-05-06 07:47:24 51°14.399 2°54.979 12.679454 3.255143 27.085839 67.98593
2004-05-06 07:47:30 51°14.407 2°54.95 12.671303 3.261778 27.14858 68.01964
2004-05-06 07:47:35 51°14.412 2°54.925 12.642247 3.28084 27.337048 67.98593
2004-05-06 07:47:40 51°14.418 2°54.899 12.642247 3.28084 27.337048 67.98593
2004-05-06 07:47:44 51°14.421 2°54.878 12.618091 3.306538 27.591641 68.053349
2004-05-06 07:47:50 51°14.425 2°54.846 12.58811 3.335397 27.874356 68.01964
2004-05-06 07:47:56 51°14.428 2°54.814 12.559829 3.371525 28.233262 68.053349
2004-05-06 07:48:00 51°14.429 2°54.792 12.553784 3.399755 28.511094 68.053349
2004-05-06 07:48:05 51°14.43 2°54.764 12.519711 3.422614 28.739573 68.01964
2004-05-06 07:48:10 51°14.43 2°54.736 12.519711 3.422614 28.739573 68.01964
2004-05-06 07:48:15 51°14.43 2°54.708 12.514745 3.447896 28.9953 68.01964
2004-05-06 07:48:20 51°14.43 2°54.68 12.499168 3.478974 29.304572 68.01964
2004-05-06 07:48:25 51°14.43 2°54.652 12.525037 3.512793 29.642143 68.01964
2004-05-06 07:48:30 51°14.431 2°54.624 12.515422 3.540397 29.916802 68.01964
2004-05-06 07:48:35 51°14.431 2°54.595 12.517815 3.572427 30.23178 68.053349
2004-05-06 07:48:40 51°14.432 2°54.566 12.517815 3.572427 30.23178 68.053349
2004-05-06 07:48:46 51°14.432 2°54.531 12.493704 3.58781 30.3858 67.98593
2004-05-06 07:48:50 51°14.433 2°54.507 12.47356 3.614996 30.647335 68.01964
2004-05-06 07:48:55 51°14.433 2°54.477 12.472115 3.619737 30.691995 67.98593
2004-05-06 07:48:59 51°14.432 2°54.452 12.445909 3.640707 30.892164 68.01964
2004-05-06 07:49:04 51°14.431 2°54.422 12.434068 3.649032 30.973877 68.053349
2004-05-06 07:49:10 51°14.427 2°54.386 12.434068 3.649032 30.973877 68.053349
2004-05-06 07:49:15 51°14.423 2°54.356 12.404998 3.673058 31.209042 67.98593
2004-05-06 07:49:19 51°14.419 2°54.333 12.379263 3.699509 31.472722 68.053349
2004-05-06 07:49:26 51°14.409 2°54.293 12.370351 3.717635 31.64886 67.98593
2004-05-06 07:49:30 51°14.403 2°54.271 12.376278 3.742191 31.898702 68.01964
2004-05-06 07:49:35 51°14.394 2°54.243 12.376278 3.742191 31.898702 68.01964
2004-05-06 07:49:40 51°14.386 2°54.216 12.379309 3.759581 32.079004 67.98593
2004-05-06 07:49:45 51°14.377 2°54.189 12.354469 3.776233 32.255275 67.98593
2004-05-06 07:49:50 51°14.368 2°54.162 12.341299 3.786984 32.376358 68.053349
2004-05-06 07:49:55 51°14.358 2°54.135 12.335369 3.794362 32.460096 67.98593
2004-05-06 07:50:00 51°14.349 2°54.108 12.332155 3.795732 32.477879 68.01964
2004-05-06 07:50:05 51°14.339 2°54.081 12.332155 3.795732 32.477879 68.01964
2004-05-06 07:50:10 51°14.329 2°54.055 12.31803 3.80058 32.528134 68.053349
2004-05-06 07:50:15 51°14.319 2°54.029 12.310423 3.811648 32.64518 67.98593
2004-05-06 07:50:20 51°14.308 2°54.003 12.303766 3.822082 32.754277 68.01964
2004-05-06 07:50:26 51°14.295 2°53.972 12.292941 3.831674 32.853375 68.01964
2004-05-06 07:50:30 51°14.286 2°53.951 12.300414 3.837471 32.91218 68.01964
2004-05-06 07:50:35 51°14.275 2°53.926 12.305487 3.844533 32.988603 68.01964
2004-05-06 07:50:40 51°14.264 2°53.9 12.305487 3.844533 32.988603 68.01964
2004-05-06 07:50:45 51°14.253 2°53.874 12.301954 3.852228 33.071829 68.053349
2004-05-06 07:50:50 51°14.243 2°53.848 12.295206 3.857182 33.124752 68.053349
2004-05-06 07:50:55 51°14.234 2°53.82 12.304626 3.863823 33.196619 68.053349
2004-05-06 07:51:00 51°14.224 2°53.793 12.295341 3.865931 33.218191 68.053349
2004-05-06 07:51:06 51°14.215 2°53.759 12.294617 3.865404 33.211758 68.01964
2004-05-06 07:51:10 51°14.209 2°53.736 12.294617 3.865404 33.211758 68.01964
2004-05-06 07:51:16 51°14.201 2°53.7 12.30363 3.866458 33.223238 68.053349
2004-05-06 07:51:20 51°14.196 2°53.676 12.303086 3.868039 33.241154 67.98593
2004-05-06 07:51:25 51°14.191 2°53.646 12.306438 3.868672 33.246517 67.98593
2004-05-06 07:51:30 51°14.185 2°53.617 12.302815 3.868777 33.247527 68.01964
2004-05-06 07:51:35 51°14.18 2°53.587 12.303267 3.869304 33.25188 67.98593
2004-05-06 07:51:40 51°14.174 2°53.557 12.303267 3.869304 33.25188 67.98593
2004-05-06 07:51:46 51°14.166 2°53.522 12.300641 3.869831 33.252762 68.053349
2004-05-06 07:51:50 51°14.16 2°53.499 12.284923 3.870358 33.257809 68.01964
2004-05-06 07:51:55 51°14.15 2°53.47 12.290404 3.872994 33.282351 68.01964
2004-05-06 07:52:00 51°14.14 2°53.443 12.286554 3.874048 33.292446 68.01964
2004-05-06 07:52:04 51°14.132 2°53.421 12.285829 3.877526 33.327156 67.98593
2004-05-06 07:52:10 51°14.119 2°53.39 12.285829 3.877526 33.327156 67.98593
2004-05-06 07:52:15 51°14.108 2°53.363 12.295251 3.879951 33.355953 68.053349
2004-05-06 07:52:20 51°14.096 2°53.337 12.293801 3.883324 33.390369 68.053349
2004-05-06 07:52:26 51°14.082 2°53.306 12.30055 3.88364 33.400375 68.01964
2004-05-06 07:52:30 51°14.074 2°53.285 12.311147 3.885643 33.42167 68.053349
2004-05-06 07:52:35 51°14.063 2°53.258 12.304762 3.884905 33.41669 67.98593
2004-05-06 07:52:40 51°14.052 2°53.23 12.304762 3.884905 33.41669 67.98593
2004-05-06 07:52:44 51°14.044 2°53.208 12.31083 3.880899 33.375499 68.01964
2004-05-06 07:52:50 51°14.031 2°53.175 12.312143 3.88227 33.387937 68.01964
2004-05-06 07:52:55 51°14.021 2°53.147 12.307796 3.882059 33.381035 68.053349
2004-05-06 07:53:00 51°14.011 2°53.119 12.309019 3.880267 33.358287 67.98593
2004-05-06 07:53:05 51°14 2°53.092 12.309019 3.880267 33.358287 67.98593
2004-05-06 07:53:11 51°13.987 2°53.059 12.307298 3.879318 33.346411 68.053349
2004-05-06 07:53:15 51°13.979 2°53.037 12.304264 3.880372 33.355118 67.98593
2004-05-06 07:53:20 51°13.968 2°53.009 12.304988 3.880267 33.352715 68.01964
2004-05-06 07:53:26 51°13.955 2°52.976 12.307524 3.881426 33.36452 67.98593
2004-05-06 07:53:30 51°13.946 2°52.954 12.299961 3.884062 33.391165 68.01964
2004-05-06 07:53:35 51°13.935 2°52.927 12.299961 3.884062 33.391165 68.01964
2004-05-06 07:53:39 51°13.926 2°52.905 12.300912 3.886275 33.412377 68.01964
2004-05-06 07:53:45 51°13.913 2°52.872 12.294028 3.887118 33.420459 68.01964
2004-05-06 07:53:50 51°13.902 2°52.845 12.288094 3.886591 33.416106 67.98593
2004-05-06 07:53:55 51°13.891 2°52.817 12.292805 3.887224 33.423563 67.98593
2004-05-06 07:54:00 51°13.881 2°52.789 12.286916 3.888594 33.43949 67.98593
2004-05-06 07:54:05 51°13.871 2°52.76 12.284832 3.889648 33.45239 67.98593
2004-05-06 07:54:10 51°13.861 2°52.731 12.284832 3.889648 33.45239 67.98593
2004-05-06 07:54:15 51°13.852 2°52.702 12.28746 3.891124 33.468635 68.053349
2004-05-06 07:54:20 51°13.843 2°52.673 12.281344 3.892495 33.485272 67.98593
2004-05-06 07:54:26 51°13.832 2°52.637 12.283247 3.89144 33.475163 68.01964
2004-05-06 07:54:30 51°13.825 2°52.614 12.284561 3.892073 33.484726 67.98593
2004-05-06 07:54:35 51°13.816 2°52.585 12.280483 3.893127 33.494836 68.053349
2004-05-06 07:54:40 51°13.806 2°52.556 12.280483 3.893127 33.494836 68.053349
2004-05-06 07:54:44 51°13.798 2°52.533 12.273687 3.891757 33.483092 67.98593
2004-05-06 07:54:50 51°13.786 2°52.498 12.27405 3.891546 33.483169 67.98593
2004-05-06 07:54:55 51°13.776 2°52.47 12.275636 3.892178 33.488536 68.01964
2004-05-06 07:55:00 51°13.765 2°52.442 12.276134 3.891862 33.486202 68.01964
2004-05-06 07:55:05 51°13.754 2°52.414 12.276632 3.892811 33.497402 67.98593
2004-05-06 07:55:10 51°13.742 2°52.387 12.276632 3.892811 33.497402 67.98593
2004-05-06 07:55:16 51°13.729 2°52.353 12.278943 3.893654 33.508993 67.98593
2004-05-06 07:55:20 51°13.721 2°52.331 12.274956 3.893549 33.510783 67.98593
2004-05-06 07:55:26 51°13.709 2°52.296 12.273144 3.893549 33.510783 68.01964
2004-05-06 07:55:29 51°13.702 2°52.279 12.277131 3.893444 33.509772 68.01964
2004-05-06 07:55:35 51°13.691 2°52.244 12.280574 3.894392 33.518174 68.01964
2004-05-06 07:55:40 51°13.681 2°52.215 12.280574 3.894392 33.518174 68.01964
2004-05-06 07:55:45 51°13.671 2°52.186 12.281661 3.894287 33.517863 67.98593
2004-05-06 07:55:50 51°13.662 2°52.156 12.283383 3.895552 33.530701 68.01964
2004-05-06 07:55:55 51°13.652 2°52.128 12.287233 3.884694 33.426542 68.01964
2004-05-06 07:56:00 51°13.641 2°52.099 12.280483 3.876472 33.346999 68.01964
2004-05-06 07:56:04 51°13.632 2°52.077 12.27115 3.895235 33.523462 68.01964
2004-05-06 07:56:10 51°13.619 2°52.044 12.27115 3.895235 33.523462 68.01964
2004-05-06 07:56:15 51°13.607 2°52.017 12.259595 3.893549 33.50518 68.01964
2004-05-06 07:56:19 51°13.597 2°51.995 12.254021 3.894392 33.513971 68.01964
2004-05-06 07:56:25 51°13.582 2°51.963 12.250395 3.893549 33.505881 68.053349
2004-05-06 07:56:30 51°13.57 2°51.937 12.25325 3.894181 33.514049 68.01964
2004-05-06 07:56:35 51°13.558 2°51.911 12.254156 3.898082 33.558486 68.053349
2004-05-06 07:56:40 51°13.545 2°51.884 12.254156 3.898082 33.558486 68.053349
2004-05-06 07:56:44 51°13.536 2°51.862 12.25044 3.894709 33.532422 68.01964
2004-05-06 07:56:50 51°13.521 2°51.83 12.254247 3.902509 33.612928 68.01964
2004-05-06 07:56:56 51°13.508 2°51.797 12.252208 3.902193 33.614813 68.053349
2004-05-06 07:57:00 51°13.499 2°51.775 12.254746 3.90388 33.631012 67.98593
2004-05-06 07:57:06 51°13.485 2°51.742 12.256604 3.902931 33.6219 67.98593
2004-05-06 07:57:10 51°13.476 2°51.719 12.256604 3.902931 33.6219 67.98593
2004-05-06 07:57:15 51°13.465 2°51.692 12.26168 3.897239 33.567937 67.98593
2004-05-06 07:57:20 51°13.454 2°51.664 12.265667 3.90388 33.631715 68.053349
2004-05-06 07:57:25 51°13.442 2°51.637 12.264172 3.899452 33.588491 67.98593
2004-05-06 07:57:30 51°13.43 2°51.609 12.260547 3.901666 33.609751 68.087059
2004-05-06 07:57:35 51°13.418 2°51.583 12.265169 3.901982 33.609976 68.087059
2004-05-06 07:57:40 51°13.406 2°51.556 12.265169 3.901982 33.609976 68.087059
2004-05-06 07:57:45 51°13.393 2°51.53 12.267933 3.900506 33.594398 68.01964
2004-05-06 07:57:50 51°13.381 2°51.503 12.272419 3.901139 33.598363 68.053349
2004-05-06 07:57:55 51°13.369 2°51.477 12.27627 3.897344 33.561226 68.01964
2004-05-06 07:58:00 51°13.357 2°51.45 12.270606 3.899031 33.578121 68.053349
2004-05-06 07:58:05 51°13.345 2°51.423 12.268522 3.899768 33.585908 68.01964
2004-05-06 07:58:10 51°13.334 2°51.395 12.268522 3.899768 33.585908 68.01964
2004-05-06 07:58:15 51°13.322 2°51.367 12.26535 3.899558 33.581075 68.053349
2004-05-06 07:58:20 51°13.311 2°51.339 12.263084 3.89766 33.55935 68.053349
2004-05-06 07:58:25 51°13.3 2°51.312 12.26177 3.897976 33.558877 68.01964
2004-05-06 07:58:30 51°13.289 2°51.284 12.258235 3.899347 33.574136 68.053349
2004-05-06 07:58:35 51°13.278 2°51.255 12.246769 3.894498 33.527595 68.01964
2004-05-06 07:58:40 51°13.267 2°51.228 12.246769 3.894498 33.527595 68.01964
2004-05-06 07:58:46 51°13.253 2°51.195 12.24355 3.898187 33.563707 68.053349
2004-05-06 07:58:50 51°13.243 2°51.173 12.250077 3.900612 33.590493 68.01964
2004-05-06 07:58:55 51°13.231 2°51.147 12.25742 3.901244 33.59797 68.087059
2004-05-06 07:59:00 51°13.219 2°51.12 12.261272 3.903774 33.627889 68.01964
2004-05-06 07:59:05 51°13.206 2°51.093 12.255471 3.904512 33.638494 68.053349
2004-05-06 07:59:11 51°13.192 2°51.061 12.255471 3.904512 33.638494 68.053349
2004-05-06 07:59:15 51°13.182 2°51.04 12.249352 3.903985 33.639061 68.053349
2004-05-06 07:59:20 51°13.17 2°51.013 12.237249 3.903142 33.628849 68.01964
2004-05-06 07:59:25 51°13.158 2°50.986 12.238927 3.902298 33.617935 68.01964
2004-05-06 07:59:30 51°13.146 2°50.959 12.24074 3.902088 33.614503 68.01964
2004-05-06 07:59:35 51°13.135 2°50.931 12.239063 3.902826 33.62159 68.01964
2004-05-06 07:59:40 51°13.124 2°50.903 12.239063 3.902826 33.62159 68.01964
2004-05-06 07:59:46 51°13.11 2°50.869 12.236705 3.903985 33.63695 68.053349
2004-05-06 07:59:50 51°13.102 2°50.847 12.237431 3.904828 33.650683 68.053349
2004-05-06 07:59:55 51°13.091 2°50.819 12.235935 3.905145 33.657243 68.01964
2004-05-06 08:00:00 51°13.079 2°50.791 12.232398 3.905777 33.662617 68.01964
2004-05-06 08:00:04 51°13.07 2°50.769 12.227094 3.900401 33.610258 68.01964
2004-05-06 08:00:10 51°13.056 2°50.736 12.227094 3.900401 33.610258 68.01964
2004-05-06 08:00:16 51°13.042 2°50.703 12.223874 3.901772 33.624127 68.01964
2004-05-06 08:00:20 51°13.032 2°50.682 12.220746 3.902404 33.630908 68.053349
2004-05-06 08:00:26 51°13.017 2°50.649 12.221562 3.894498 33.556361 68.01964
2004-05-06 08:00:30 51°13.008 2°50.628 12.226323 3.908834 33.697637 68.053349
2004-05-06 08:00:35 51°12.996 2°50.601 12.226323 3.908834 33.697637 68.053349
2004-05-06 08:00:40 51°12.983 2°50.574 12.227366 3.908834 33.70187 68.053349
2004-05-06 08:00:46 51°12.969 2°50.542 12.225144 3.909678 33.7128 68.01964
2004-05-06 08:00:51 51°12.957 2°50.515 12.223149 3.909362 33.712583 68.01964
2004-05-06 08:00:55 51°12.948 2°50.493 12.224781 3.910626 33.724747 67.98593
2004-05-06 08:01:00 51°12.937 2°50.465 12.224872 3.911154 33.728403 68.01964
2004-05-06 08:01:05 51°12.926 2°50.437 12.224872 3.911154 33.728403 68.01964
2004-05-06 08:01:10 51°12.914 2°50.409 12.222605 3.911154 33.727697 68.053349
2004-05-06 08:01:15 51°12.903 2°50.381 12.220111 3.91147 33.731444 68.053349
2004-05-06 08:01:20 51°12.892 2°50.354 12.216801 3.912735 33.744315 68.053349
2004-05-06 08:01:25 51°12.881 2°50.327 12.212311 3.914 33.75648 68.01964
2004-05-06 08:01:31 51°12.866 2°50.294 12.205191 3.913789 33.753745 68.053349
2004-05-06 08:01:35 51°12.857 2°50.273 12.206415 3.916846 33.785976 68.053349
2004-05-06 08:01:40 51°12.845 2°50.246 12.206415 3.916846 33.785976 68.053349
2004-05-06 08:01:45 51°12.833 2°50.22 12.202016 3.916741 33.784962 68.053349
2004-05-06 08:01:50 51°12.821 2°50.192 12.201154 3.916635 33.786779 67.98593
2004-05-06 08:01:55 51°12.81 2°50.165 12.204283 3.917584 33.799445 68.01964
2004-05-06 08:02:00 51°12.799 2°50.137 12.202787 3.919376 33.820229 68.01964
2004-05-06 08:02:05 51°12.789 2°50.108 12.192898 3.919692 33.826815 68.053349
2004-05-06 08:02:10 51°12.779 2°50.079 12.192898 3.919692 33.826815 68.053349
2004-05-06 08:02:15 51°12.77 2°50.05 12.188679 3.919903 33.830971 68.053349
2004-05-06 08:02:20 51°12.76 2°50.021 12.184641 3.920536 33.837058 67.98593
2004-05-06 08:02:26 51°12.749 2°49.986 12.180195 3.919482 33.82833 68.01964
2004-05-06 08:02:28 51°12.745 2°49.974 12.170076 3.921168 33.844564 68.01964
2004-05-06 08:02:35 51°12.731 2°49.934 12.164086 3.920641 33.842328 68.053349
2004-05-06 08:02:40 51°12.721 2°49.905 12.164086 3.920641 33.842328 68.053349
2004-05-06 08:02:45 51°12.71 2°49.877 12.16404 3.912419 33.766729 68.01964
2004-05-06 08:02:50 51°12.699 2°49.849 12.15578 3.913157 33.779494 68.01964
2004-05-06 08:02:55 51°12.688 2°49.821 12.152467 3.921274 33.862609 67.98593
2004-05-06 08:03:00 51°12.678 2°49.793 12.151876 3.918428 33.841586 68.01964
2004-05-06 08:03:05 51°12.667 2°49.765 12.150424 3.923382 33.894996 68.01964
2004-05-06 08:03:10 51°12.656 2°49.737 12.150424 3.923382 33.894996 68.01964
2004-05-06 08:03:15 51°12.645 2°49.709 12.1477 3.922855 33.893472 68.087059
2004-05-06 08:03:20 51°12.634 2°49.681 12.14307 3.916741 33.840245 68.053349
2004-05-06 08:03:25 51°12.624 2°49.652 12.14021 3.920431 33.877928 68.053349
2004-05-06 08:03:30 51°12.614 2°49.623 12.139665 3.91885 33.866243 68.087059
2004-05-06 08:03:35 51°12.604 2°49.595 12.13063 3.912841 33.809052 68.053349
2004-05-06 08:03:40 51°12.594 2°49.566 12.13063 3.912841 33.809052 68.053349
2004-05-06 08:03:45 51°12.584 2°49.537 12.125498 3.920326 33.884733 68.053349
2004-05-06 08:03:50 51°12.574 2°49.508 12.115598 3.923804 33.920404 68.087059
2004-05-06 08:03:56 51°12.562 2°49.474 12.110966 3.919904 33.883513 68.087059
2004-05-06 08:04:00 51°12.553 2°49.451 12.104788 3.922961 33.917257 68.053349
2004-05-06 08:04:05 51°12.543 2°49.423 12.104788 3.922961 33.917257 68.053349
2004-05-06 08:04:10 51°12.531 2°49.395 12.100745 3.917585 33.868978 68.120768
2004-05-06 08:04:15 51°12.52 2°49.366 12.094385 3.915793 33.855966 68.087059
2004-05-06 08:04:19 51°12.512 2°49.344 12.096702 3.916109 33.866127 68.120768
2004-05-06 08:04:26 51°12.496 2°49.304 12.099292 3.92507 33.958976 68.120768
2004-05-06 08:04:31 51°12.486 2°49.276 12.095021 3.924543 33.959597 68.053349
2004-05-06 08:04:35 51°12.477 2°49.253 12.095021 3.924543 33.959597 68.053349
2004-05-06 08:04:39 51°12.469 2°49.23 12.096021 3.92391 33.957061 68.120768
2004-05-06 08:04:45 51°12.457 2°49.195 12.094158 3.92391 33.961343 68.120768
2004-05-06 08:04:50 51°12.447 2°49.166 12.083435 3.92507 33.974679 68.154477
2004-05-06 08:04:55 51°12.437 2°49.137 12.081391 3.922434 33.949952 68.154477
2004-05-06 08:05:00 51°12.427 2°49.109 12.072938 3.922224 33.947917 68.120768
2004-05-06 08:05:04 51°12.418 2°49.086 12.067984 3.919799 33.925227 68.188187
2004-05-06 08:05:10 51°12.405 2°49.052 12.067984 3.919799 33.925227 68.188187
2004-05-06 08:05:15 51°12.395 2°49.023 12.069211 3.91242 33.857572 68.188187
2004-05-06 08:05:20 51°12.384 2°48.995 12.066621 3.918956 33.924932 68.154477
2004-05-06 08:05:26 51°12.372 2°48.96 12.06553 3.92254 33.963107 68.221896
2004-05-06 08:05:30 51°12.364 2°48.937 12.06603 3.917902 33.924741 68.323024
2004-05-06 08:05:35 51°12.354 2°48.908 12.063848 3.921275 33.961604 68.154477
2004-05-06 08:05:40 51°12.345 2°48.878 12.063848 3.921275 33.961604 68.154477
2004-05-06 08:05:45 51°12.336 2°48.848 12.060758 3.917059 33.923733 68.457862
2004-05-06 08:05:50 51°12.327 2°48.819 12.059076 3.919167 33.946239 66.772392
2004-05-06 08:05:55 51°12.318 2°48.789 12.056621 3.916215 33.917729 64.244187
2004-05-06 08:06:00 51°12.308 2°48.759 12.047802 3.920643 33.961211 61.412597
2004-05-06 08:06:05 51°12.299 2°48.73 12.044483 3.924543 34.00104 59.524871
2004-05-06 08:06:10 51°12.289 2°48.701 12.044483 3.924543 34.00104 59.524871
2004-05-06 08:06:15 51°12.278 2°48.672 12.038345 3.924332 34.001149 58.918101
2004-05-06 08:06:20 51°12.268 2°48.644 12.03789 3.925176 34.011446 59.760836
2004-05-06 08:06:25 51°12.257 2°48.615 12.035525 3.924649 34.009215 61.378888
2004-05-06 08:06:30 51°12.246 2°48.587 12.040027 3.925703 34.023701 62.491298
2004-05-06 08:06:35 51°12.236 2°48.558 12.037754 3.925914 34.030753 63.064358
2004-05-06 08:06:40 51°12.225 2°48.53 12.037754 3.925914 34.030753 63.064358
2004-05-06 08:06:45 51°12.215 2°48.501 12.041346 3.922435 33.999986 62.828392
2004-05-06 08:06:50 51°12.205 2°48.472 12.035253 3.922119 33.999793 61.682272
2004-05-06 08:06:55 51°12.195 2°48.443 12.032934 3.925809 34.037617 60.09793
2004-05-06 08:07:00 51°12.186 2°48.413 12.029068 3.926019 34.038939 58.581007
2004-05-06 08:07:05 51°12.177 2°48.384 12.026612 3.925809 34.037617 56.794409
2004-05-06 08:07:10 51°12.167 2°48.354 12.026612 3.925809 34.037617 56.794409
2004-05-06 08:07:15 51°12.159 2°48.324 12.024293 3.921697 33.997148 55.176358
2004-05-06 08:07:20 51°12.15 2°48.294 12.019745 3.926652 34.04649 53.490888
2004-05-06 08:07:26 51°12.14 2°48.257 12.017562 3.926968 34.050983 52.344768
2004-05-06 08:07:30 51°12.134 2°48.233 12.017061 3.926547 34.049773 51.434614
2004-05-06 08:07:35 51°12.125 2°48.202 12.017289 3.926547 34.051925 51.164939
2004-05-06 08:07:40 51°12.117 2°48.172 12.017289 3.926547 34.051925 51.164939
2004-05-06 08:07:45 51°12.108 2°48.142 12.015924 3.926757 34.056834 51.09752
2004-05-06 08:07:50 51°12.099 2°48.112 12.01042 3.927495 34.066843 51.063811
2004-05-06 08:07:56 51°12.087 2°48.076 12.007236 3.927285 34.066957 50.962683
2004-05-06 08:08:00 51°12.08 2°48.053 12.007873 3.92739 34.07013 50.052529
2004-05-06 08:08:06 51°12.069 2°48.017 12.007873 3.92739 34.07013 50.052529
2004-05-06 08:08:09 51°12.063 2°48 12.009829 3.926863 34.067184 49.816563
2004-05-06 08:08:15 51°12.054 2°47.968 12.012012 3.921487 34.017318 49.243503
2004-05-06 08:08:20 51°12.045 2°47.941 12.012058 3.925176 34.056605 48.906409
2004-05-06 08:08:26 51°12.037 2°47.91 12.010193 3.927074 34.074969 47.895127
2004-05-06 08:08:30 51°12.031 2°47.89 12.008009 3.927179 34.077426 46.917554
2004-05-06 08:08:36 51°12.026 2°47.862 12.010784 3.924228 34.049577 45.366922
2004-05-06 08:08:40 51°12.023 2°47.843 12.010784 3.924228 34.049577 45.366922
2004-05-06 08:08:45 51°12.021 2°47.821 12.00851 3.923068 34.036921 43.816289
2004-05-06 08:08:50 51°12.021 2°47.801 11.998228 3.926863 34.07221 42.771298
2004-05-06 08:08:55 51°12.022 2°47.781 11.997591 3.927179 34.075989 41.726306
2004-05-06 08:09:00 51°12.024 2°47.763 12.002368 3.928233 34.08691 41.288084
2004-05-06 08:09:06 51°12.027 2°47.743 11.997455 3.926863 34.072929 41.692597
2004-05-06 08:09:10 51°12.03 2°47.731 11.997455 3.926863 34.072929 41.692597
2004-05-06 08:09:15 51°12.034 2°47.718 12.00114 3.927179 34.076707 42.333076
2004-05-06 08:09:20 51°12.038 2°47.705 12.007509 3.92739 34.083059 42.906136
2004-05-06 08:09:25 51°12.043 2°47.694 12.008601 3.92739 34.084496 43.24323
2004-05-06 08:09:30 51°12.048 2°47.685 12.007827 3.926441 34.07603 43.007264
2004-05-06 08:09:35 51°12.053 2°47.676 12.008373 3.927074 34.082871 41.254375
2004-05-06 08:09:40 51°12.058 2°47.669 12.008373 3.927074 34.082871 41.254375
2004-05-06 08:09:44 51°12.062 2°47.664 12.004552 3.926758 34.079092 38.69246
2004-05-06 08:09:50 51°12.069 2°47.658 12.002232 3.926441 34.073875 36.197965
2004-05-06 08:09:55 51°12.074 2°47.654 11.996363 3.926547 34.072741 33.804597
2004-05-06 08:09:59 51°12.078 2°47.651 12.000503 3.928761 34.093449 32.557349
2004-05-06 08:10:06 51°12.085 2°47.648 11.99295 3.926652 34.073043 31.849452
2004-05-06 08:10:10 51°12.088 2°47.647 11.99295 3.926652 34.073043 31.849452
2004-05-06 08:10:16 51°12.093 2°47.647 11.995771 3.927496 34.082642 31.242683
2004-05-06 08:10:20 51°12.097 2°47.647 11.991585 3.927285 34.083475 31.242683
2004-05-06 08:10:25 51°12.101 2°47.648 11.98617 3.927917 34.091035 31.175264
2004-05-06 08:10:30 51°12.104 2°47.65 11.989128 3.928444 34.096857 30.737042
2004-05-06 08:10:35 51°12.108 2°47.652 11.98799 3.925914 34.075957 30.770751
2004-05-06 08:10:40 51°12.111 2°47.654 11.98799 3.925914 34.075957 30.770751
2004-05-06 08:10:45 51°12.114 2°47.657 11.98799 3.927285 34.091381 31.107845
2004-05-06 08:10:50 51°12.117 2°47.66 11.987808 3.927917 34.100382 31.37752
2004-05-06 08:10:55 51°12.12 2°47.663 11.991676 3.928023 34.102122 31.242683
2004-05-06 08:11:00 51°12.122 2°47.665 11.988764 3.926758 34.091311 31.107845
2004-05-06 08:11:03 51°12.123 2°47.666 11.988764 3.927074 34.095092 30.534785
2004-05-06 08:11:10 51°12.125 2°47.668 11.988764 3.927074 34.095092 30.534785
2004-05-06 08:11:15 51°12.126 2°47.668 11.990948 3.928655 34.111125 30.26511
2004-05-06 08:11:20 51°12.126 2°47.667 11.991813 3.927285 34.098572 29.321247
2004-05-06 08:11:25 51°12.126 2°47.666 11.989583 3.926653 34.091728 29.11899
2004-05-06 08:11:30 51°12.126 2°47.665 11.986534 3.92739 34.098874 29.523503
2004-05-06 08:11:35 51°12.126 2°47.664 11.986534 3.92739 34.098874 29.523503
2004-05-06 08:11:39 51°12.125 2°47.663 11.988264 3.927074 34.095092 29.995435
2004-05-06 08:11:44 51°12.125 2°47.663 11.991085 3.926758 34.09203 30.501076
2004-05-06 08:11:51 51°12.125 2°47.662 11.989401 3.92602 34.084165 30.871879
2004-05-06 08:11:55 51°12.125 2°47.661 11.988764 3.926758 34.091311 31.782033
2004-05-06 08:12:00 51°12.125 2°47.661 11.991221 3.926336 34.089384 32.355093
2004-05-06 08:12:06 51°12.125 2°47.66 11.991221 3.926336 34.089384 32.355093
2004-05-06 08:12:10 51°12.124 2°47.66 11.991722 3.925915 34.085301 32.793315
2004-05-06 08:12:15 51°12.124 2°47.659 11.99063 3.92602 34.086322 33.501212
2004-05-06 08:12:20 51°12.124 2°47.658 11.991585 3.925704 34.083978 34.040563
2004-05-06 08:12:26 51°12.123 2°47.658 11.988992 3.925388 34.080197 35.018136
2004-05-06 08:12:30 51°12.123 2°47.657 11.991039 3.925177 34.077436 36.130546
2004-05-06 08:12:35 51°12.123 2°47.657 11.992541 3.925598 34.082238 37.00699
2004-05-06 08:12:40 51°12.122 2°47.656 11.992541 3.925598 34.082238 37.00699
2004-05-06 08:12:45 51°12.121 2°47.655 11.992313 3.925071 34.076416 37.883435
2004-05-06 08:12:50 51°12.121 2°47.654 11.992814 3.926336 34.088665 38.658751
2004-05-06 08:12:55 51°12.12 2°47.654 11.995134 3.924966 34.076114 39.096973
2004-05-06 08:13:00 51°12.12 2°47.653 11.995498 3.925071 34.077134 39.231811
2004-05-06 08:13:06 51°12.119 2°47.652 11.998228 3.925809 34.08428 39.602614
2004-05-06 08:13:11 51°12.118 2°47.651 11.998228 3.925809 34.08428 39.602614
2004-05-06 08:13:15 51°12.117 2°47.651 11.999912 3.925177 34.076718 39.434067
2004-05-06 08:13:20 51°12.117 2°47.65 11.999684 3.924966 34.073957 39.29923
2004-05-06 08:13:25 51°12.116 2°47.649 12.003733 3.92486 34.072218 39.063264
2004-05-06 08:13:29 51°12.115 2°47.648 12.005416 3.92349 34.058949 38.69246
2004-05-06 08:13:35 51°12.114 2°47.647 12.00619 3.925809 34.079248 38.389076
2004-05-06 08:13:40 51°12.114 2°47.646 12.00619 3.925809 34.079248 38.389076
2004-05-06 08:13:44 51°12.113 2°47.645 12.006281 3.924544 34.064845 38.456494
2004-05-06 08:13:50 51°12.112 2°47.644 12.007236 3.925809 34.076374 38.186819
2004-05-06 08:13:55 51°12.111 2°47.643 12.00578 3.924544 34.06269 37.883435
2004-05-06 08:13:59 51°12.11 2°47.642 12.007645 3.924333 34.059931 37.141828
2004-05-06 08:14:04 51°12.109 2°47.641 12.007964 3.92486 34.063597 36.838443
2004-05-06 08:14:10 51°12.108 2°47.64 12.007964 3.92486 34.063597 36.838443
2004-05-06 08:14:15 51°12.107 2°47.639 12.005143 3.924966 34.063899 36.669896
2004-05-06 08:14:20 51°12.106 2°47.638 12.006417 3.924966 34.063899 36.636187
2004-05-06 08:14:25 51°12.105 2°47.637 12.007418 3.92486 34.062879 36.43393
2004-05-06 08:14:30 51°12.104 2°47.636 12.006781 3.924649 34.059402 36.366512
2004-05-06 08:14:35 51°12.103 2°47.634 12.006781 3.924649 34.059402 36.366512
2004-05-06 08:14:39 51°12.103 2°47.633 12.007282 3.924439 34.057361 36.501349
2004-05-06 08:14:46 51°12.101 2°47.632 12.004825 3.924228 34.056756 37.074409
2004-05-06 08:14:50 51°12.1 2°47.631 12.004461 3.924544 34.059817 37.141828
2004-05-06 08:14:56 51°12.099 2°47.629 12.005189 3.92486 34.062161 37.344084
2004-05-06 08:15:00 51°12.098 2°47.628 12.003915 3.924755 34.06114 37.748597
2004-05-06 08:15:06 51°12.097 2°47.626 12.004961 3.925598 34.068585 37.950853
2004-05-06 08:15:10 51°12.096 2°47.625 12.004961 3.925598 34.068585 37.950853
2004-05-06 08:15:15 51°12.096 2°47.624 12.006372 3.925282 34.066242 38.591332
2004-05-06 08:15:20 51°12.094 2°47.622 12.008464 3.925387 34.067981 39.366648
2004-05-06 08:15:25 51°12.093 2°47.621 12.010921 3.924649 34.060838 39.973418
2004-05-06 08:15:30 51°12.093 2°47.62 12.012012 3.924755 34.060422 40.276802
2004-05-06 08:15:35 51°12.091 2°47.619 12.010466 3.924333 34.057059 40.37793
2004-05-06 08:15:40 51°12.09 2°47.617 12.010466 3.924333 34.057059 40.37793
2004-05-06 08:15:46 51°12.089 2°47.615 12.011148 3.924649 34.06012 40.95099
2004-05-06 08:15:50 51°12.087 2°47.614 12.011512 3.924966 34.062463 41.085828
2004-05-06 08:15:55 51°12.086 2°47.613 12.01315 3.924649 34.057966 40.95099
2004-05-06 08:16:00 51°12.084 2°47.613 12.014514 3.924966 34.058872 40.479059
2004-05-06 08:16:05 51°12.083 2°47.612 12.014514 3.924966 34.058872 40.479059
2004-05-06 08:16:10 51°12.081 2°47.612 12.018926 3.924544 34.055509 40.243093
2004-05-06 08:16:15 51°12.079 2°47.612 12.017562 3.924333 34.052751 40.141965
2004-05-06 08:16:20 51°12.077 2°47.612 12.016106 3.924439 34.053771 40.007127
2004-05-06 08:16:23 51°12.076 2°47.612 12.019154 3.924755 34.055396 39.973418
2004-05-06 08:16:30 51°12.072 2°47.612 12.019472 3.924439 34.051618 39.737452
2004-05-06 08:16:36 51°12.067 2°47.613 12.01879 3.925387 34.058646 39.535195
2004-05-06 08:16:40 51°12.064 2°47.614 12.01879 3.925387 34.058646 39.535195
2004-05-06 08:16:45 51°12.059 2°47.615 12.020245 3.924966 34.053847 39.26552
2004-05-06 08:16:50 51°12.053 2°47.616 12.019154 3.925282 34.056908 39.231811
2004-05-06 08:16:55 51°12.047 2°47.616 12.019017 3.925493 34.056795 39.029554
2004-05-06 08:17:00 51°12.039 2°47.617 12.019154 3.925176 34.053734 38.759879
2004-05-06 08:17:06 51°12.03 2°47.618 12.017516 3.925914 34.060157 38.557623
2004-05-06 08:17:10 51°12.024 2°47.619 12.017516 3.925914 34.060157 38.557623
2004-05-06 08:17:15 51°12.015 2°47.619 12.018562 3.924755 34.048219 38.321657
2004-05-06 08:17:20 51°12.006 2°47.618 12.017562 3.924966 34.050977 38.1194
2004-05-06 08:17:25 51°11.996 2°47.616 12.017334 3.925387 34.055057 37.647469
2004-05-06 08:17:30 51°11.986 2°47.614 12.017926 3.925387 34.055774 37.108118
2004-05-06 08:17:35 51°11.976 2°47.61 12.014469 3.925282 34.055472 36.602477
2004-05-06 08:17:40 51°11.966 2°47.604 12.014469 3.925282 34.055472 36.602477
2004-05-06 08:17:46 51°11.954 2°47.596 12.014514 3.925282 34.055472 35.793452
2004-05-06 08:17:50 51°11.946 2°47.59 12.014878 3.924438 34.046594 34.984426
2004-05-06 08:17:55 51°11.936 2°47.582 12.00851 3.925493 34.056795 34.681042
2004-05-06 08:17:59 51°11.928 2°47.574 12.006918 3.925598 34.057815 34.411366
2004-05-06 08:18:05 51°11.916 2°47.562 12.003233 3.925703 34.059553 33.939435
2004-05-06 08:18:10 51°11.906 2°47.552 12.003233 3.925703 34.059553 33.939435
2004-05-06 08:18:15 51°11.895 2°47.542 12.000912 3.925598 34.05925 33.703469
2004-05-06 08:18:20 51°11.885 2°47.531 11.999411 3.925598 34.059968 33.332665
2004-05-06 08:18:24 51°11.877 2°47.523 11.996818 3.926758 34.074781 32.456221
2004-05-06 08:18:30 51°11.864 2°47.51 11.99427 3.927179 34.080299 31.95058
2004-05-06 08:18:35 51°11.854 2°47.499 11.99427 3.927179 34.080299 31.95058
2004-05-06 08:18:40 51°11.843 2°47.488 11.99295 3.927496 34.087672 31.714614
2004-05-06 08:18:44 51°11.834 2°47.479 11.986307 3.927812 34.09289 31.512358
2004-05-06 08:18:50 51°11.821 2°47.467 11.98435 3.926758 34.084841 31.916871
2004-05-06 08:18:55 51°11.81 2°47.456 11.984077 3.927601 34.094444 32.52364
2004-05-06 08:19:00 51°11.799 2°47.446 11.982757 3.927496 34.094861 33.467503
2004-05-06 08:19:06 51°11.786 2°47.434 11.982757 3.927496 34.094861 33.467503
2004-05-06 08:19:10 51°11.777 2°47.426 11.984077 3.92718 34.094675 34.950717
2004-05-06 08:19:15 51°11.766 2°47.415 11.98303 3.926653 34.093166 38.220529
2004-05-06 08:19:19 51°11.757 2°47.406 11.98303 3.927285 34.102888 41.119537
2004-05-06 08:19:24 51°11.747 2°47.395 11.981164 3.927285 34.104327 43.479195
2004-05-06 08:19:30 51°11.734 2°47.381 11.979435 3.926336 34.095857 44.288221
2004-05-06 08:19:35 51°11.723 2°47.369 11.979435 3.926336 34.095857 44.288221
2004-05-06 08:19:40 51°11.713 2°47.357 11.978343 3.926653 34.09892 44.288221
2004-05-06 08:19:44 51°11.705 2°47.347 11.971971 3.92718 34.104026 44.254512
2004-05-06 08:19:51 51°11.691 2°47.329 11.970014 3.926653 34.09892 43.917418
2004-05-06 08:19:56 51°11.681 2°47.316 11.96569 3.925598 34.090148 44.119674
2004-05-06 08:20:00 51°11.673 2°47.306 11.961684 3.925598 34.091587 44.793862
2004-05-06 08:20:06 51°11.661 2°47.294 11.955583 3.92602 34.09783 45.838853
2004-05-06 08:20:10 51°11.653 2°47.289 11.955583 3.92602 34.09783 45.838853
2004-05-06 08:20:15 51°11.643 2°47.284 11.951031 3.925388 34.093861 47.72658
2004-05-06 08:20:20 51°11.633 2°47.282 11.944611 3.925388 34.09602 49.580597
2004-05-06 08:20:26 51°11.621 2°47.282 11.94502 3.924228 34.088383 52.24364
2004-05-06 08:20:30 51°11.614 2°47.283 11.946751 3.924334 34.093722 54.299913
2004-05-06 08:20:35 51°11.605 2°47.287 11.948071 3.925072 34.104472 55.951674
2004-05-06 08:20:40 51°11.598 2°47.292 11.948071 3.925072 34.104472 55.951674
2004-05-06 08:20:45 51°11.591 2°47.297 11.950302 3.923596 34.094488 57.974238
2004-05-06 08:20:50 51°11.585 2°47.303 11.952396 3.921909 34.084619 59.356324
2004-05-06 08:20:55 51°11.58 2°47.308 11.953626 3.921277 34.080647 59.760836
2004-05-06 08:21:00 51°11.575 2°47.314 11.954445 3.921382 34.081669 58.345042
2004-05-06 08:21:06 51°11.57 2°47.321 11.955538 3.921909 34.087499 56.659571
2004-05-06 08:21:10 51°11.567 2°47.325 11.955538 3.921909 34.087499 56.659571
2004-05-06 08:21:15 51°11.564 2°47.33 11.960318 3.919274 34.060513 54.974101
2004-05-06 08:21:20 51°11.561 2°47.334 11.963641 3.91959 34.06214 53.423469
2004-05-06 08:21:23 51°11.56 2°47.336 11.967692 3.919801 34.062744 51.973965
2004-05-06 08:21:30 51°11.558 2°47.339 11.970606 3.919274 34.054759 50.928973
2004-05-06 08:21:36 51°11.556 2°47.339 11.971106 3.919274 34.05404 49.98511
2004-05-06 08:21:40 51°11.556 2°47.339 11.971106 3.919274 34.05404 49.98511
2004-05-06 08:21:46 51°11.555 2°47.337 11.972472 3.919906 34.058012 49.41205
2004-05-06 08:21:47 51°11.555 2°47.337 11.971971 3.919485 34.05105 48.535606
2004-05-06 08:21:55 51°11.555 2°47.334 11.975157 3.920223 34.054605 47.72658
2004-05-06 08:22:00 51°11.554 2°47.331 11.974292 3.920433 34.053773 47.18723
2004-05-06 08:22:05 51°11.554 2°47.33 11.973792 3.920539 34.053356 46.951264
2004-05-06 08:22:11 51°11.554 2°47.327 11.973792 3.920539 34.053356 46.951264
2004-05-06 08:22:16 51°11.553 2°47.325 11.975111 3.920117 34.047834 46.715298
2004-05-06 08:22:21 51°11.553 2°47.323 11.973655 3.920749 34.053243 45.872563
2004-05-06 08:22:26 51°11.552 2°47.321 11.973245 3.920749 34.052524 45.535469
2004-05-06 08:22:31 51°11.552 2°47.319 11.971925 3.920749 34.053243 45.366922
2004-05-06 08:22:36 51°11.551 2°47.317 11.971061 3.921487 34.059672 44.9287
2004-05-06 08:22:41 51°11.55 2°47.316 11.971061 3.921487 34.059672 44.9287
2004-05-06 08:22:46 51°11.55 2°47.314 11.970742 3.920855 34.052108 45.265794
2004-05-06 08:22:51 51°11.549 2°47.312 11.967601 3.920749 34.052524 46.715298
2004-05-06 08:22:56 51°11.549 2°47.311 11.966236 3.919906 34.045073 47.928836
2004-05-06 08:23:00 51°11.548 2°47.309 11.965963 3.920012 34.045376 49.243503
2004-05-06 08:23:06 51°11.547 2°47.307 11.963505 3.919906 34.044355 50.389623
2004-05-06 08:23:11 51°11.547 2°47.306 11.963505 3.919906 34.044355 50.389623
2004-05-06 08:23:16 51°11.546 2°47.305 11.962184 3.920012 34.047532 51.535742
2004-05-06 08:23:21 51°11.546 2°47.303 11.96009 3.920012 34.049688 52.985247
2004-05-06 08:23:26 51°11.545 2°47.302 11.962276 3.919695 34.047343 54.198785
2004-05-06 08:23:31 51°11.544 2°47.3 11.960864 3.919695 34.048061 55.513452
2004-05-06 08:23:36 51°11.544 2°47.299 11.960682 3.919274 34.043976 56.322477
2004-05-06 08:23:40 51°11.543 2°47.298 11.960682 3.919274 34.043976 56.322477
2004-05-06 08:23:46 51°11.542 2°47.296 11.960591 3.919274 34.046132 57.704563
2004-05-06 08:23:51 51°11.542 2°47.295 11.959817 3.919695 34.050218 58.345042
2004-05-06 08:23:56 51°11.541 2°47.293 11.95877 3.918747 34.042463 59.390033
2004-05-06 08:24:00 51°11.541 2°47.292 11.956995 3.919168 34.047267 60.333896
2004-05-06 08:24:06 51°11.54 2°47.291 11.959134 3.919063 34.046246 60.7047
2004-05-06 08:24:11 51°11.539 2°47.289 11.959134 3.919063 34.046246 60.7047
2004-05-06 08:24:16 51°11.539 2°47.288 11.956858 3.919168 34.047986 61.81711
2004-05-06 08:24:20 51°11.538 2°47.287 11.956722 3.918747 34.0439 62.96323
2004-05-06 08:24:26 51°11.538 2°47.286 11.956813 3.919274 34.049726 63.671127
2004-05-06 08:24:31 51°11.537 2°47.285 11.954809 3.919168 34.048705 63.974512
2004-05-06 08:24:36 51°11.537 2°47.284 11.957996 3.91959 34.05351 64.446443
2004-05-06 08:24:40 51°11.536 2°47.283 11.957996 3.91959 34.05351 64.446443
2004-05-06 08:24:45 51°11.535 2°47.282 11.954718 3.918325 34.041971 65.154341
2004-05-06 08:24:50 51°11.535 2°47.28 11.955583 3.917587 34.034821 65.7274
2004-05-06 08:24:55 51°11.534 2°47.279 11.954445 3.919063 34.04984 66.30046
2004-05-06 08:25:00 51°11.534 2°47.278 11.955037 3.918852 34.048516 67.075777
2004-05-06 08:25:05 51°11.533 2°47.277 11.958042 3.918325 34.041971 67.345452
2004-05-06 08:25:10 51°11.533 2°47.276 11.958042 3.918325 34.041971 67.345452
2004-05-06 08:25:15 51°11.532 2°47.275 11.955219 3.918958 34.050257 67.749965
2004-05-06 08:25:20 51°11.532 2°47.274 11.954354 3.918114 34.042085 68.323024
2004-05-06 08:25:25 51°11.531 2°47.273 11.95531 3.91822 34.043825 68.356734
2004-05-06 08:25:30 51°11.531 2°47.272 11.955174 3.918536 34.046889 68.188187
2004-05-06 08:25:35 51°11.53 2°47.272 11.956266 3.918747 34.048214 68.053349
2004-05-06 08:25:40 51°11.53 2°47.271 11.956266 3.918747 34.048214 68.053349
2004-05-06 08:25:46 51°11.529 2°47.27 11.956448 3.918431 34.045149 67.648836
2004-05-06 08:25:50 51°11.529 2°47.27 11.955265 3.917587 34.036977 68.087059
2004-05-06 08:25:55 51°11.529 2°47.27 11.955993 3.918852 34.049954 68.424153
2004-05-06 08:26:00 51°11.529 2°47.269 11.957723 3.916639 34.028503 68.424153
2004-05-06 08:26:04 51°11.528 2°47.269 11.957496 3.918958 34.050257 68.356734
2004-05-06 08:26:10 51°11.528 2°47.269 11.957496 3.918958 34.050257 68.356734
2004-05-06 08:26:15 51°11.527 2°47.269 11.957723 3.919274 34.052602 68.424153
2004-05-06 08:26:20 51°11.527 2°47.269 11.959225 3.918009 34.041063 68.356734
2004-05-06 08:26:25 51°11.526 2°47.269 11.960364 3.918641 34.046473 68.390443
2004-05-06 08:26:30 51°11.526 2°47.269 11.961137 3.919063 34.050559 68.424153
2004-05-06 08:26:35 51°11.526 2°47.269 11.962549 3.918325 34.04269 68.457862
2004-05-06 08:26:40 51°11.526 2°47.27 11.962549 3.918325 34.04269 68.457862
2004-05-06 08:26:45 51°11.526 2°47.27 11.962685 3.918852 34.048516 68.356734
2004-05-06 08:26:50 51°11.526 2°47.27 11.966463 3.919063 34.048402 68.390443
2004-05-06 08:26:56 51°11.526 2°47.271 11.965963 3.920117 34.058617 67.176905
2004-05-06 08:27:00 51°11.526 2°47.271 11.96792 3.918536 34.041858 66.469007
2004-05-06 08:27:05 51°11.526 2°47.272 11.970742 3.918852 34.044922 66.435298
2004-05-06 08:27:10 51°11.526 2°47.273 11.970742 3.918852 34.044922 66.435298
2004-05-06 08:27:15 51°11.526 2°47.273 11.971425 3.917693 34.031531 65.7274
2004-05-06 08:27:20 51°11.526 2°47.274 11.973427 3.918958 34.043068 64.985794
2004-05-06 08:27:25 51°11.526 2°47.274 11.97411 3.919168 34.044392 64.345315
2004-05-06 08:27:30 51°11.526 2°47.275 11.974156 3.919274 34.043258 63.300324
2004-05-06 08:27:35 51°11.526 2°47.276 11.972927 3.919695 34.045905 62.996939
2004-05-06 08:27:40 51°11.526 2°47.276 11.972927 3.919695 34.045905 62.996939
2004-05-06 08:27:45 51°11.527 2°47.277 11.976522 3.91959 34.044166 62.120494
2004-05-06 08:27:50 51°11.527 2°47.277 11.974201 3.920012 34.046813 61.7834
2004-05-06 08:27:55 51°11.528 2°47.278 11.976158 3.919906 34.044355 62.120494
2004-05-06 08:28:00 51°11.528 2°47.279 11.978434 3.919906 34.045073 61.446306
2004-05-06 08:28:05 51°11.529 2°47.28 11.981438 3.919695 34.042313 61.547435
2004-05-06 08:28:10 51°11.529 2°47.28 11.981438 3.919695 34.042313 61.547435
2004-05-06 08:28:15 51°11.53 2°47.281 11.980573 3.920012 34.044657 61.951947
2004-05-06 08:28:20 51°11.531 2°47.282 11.9808 3.919801 34.042615 62.086785
2004-05-06 08:28:25 51°11.532 2°47.283 11.980209 3.919801 34.041897 62.727264
2004-05-06 08:28:30 51°11.533 2°47.283 11.981529 3.919484 34.038115 62.760973
2004-05-06 08:28:35 51°11.534 2°47.284 11.983485 3.920012 34.040347 63.266614
2004-05-06 08:28:40 51°11.535 2°47.285 11.983485 3.920012 34.040347 63.266614
2004-05-06 08:28:46 51°11.536 2°47.288 11.984669 3.919906 34.038608 64.176768
2004-05-06 08:28:50 51°11.538 2°47.289 11.983121 3.920222 34.041671 64.311606
2004-05-06 08:28:55 51°11.54 2°47.292 11.984623 3.920433 34.044431 64.412734
2004-05-06 08:29:00 51°11.542 2°47.294 11.984214 3.919801 34.037587 64.109349
2004-05-06 08:29:04 51°11.544 2°47.297 11.984122 3.920117 34.039932 62.96323
2004-05-06 08:29:10 51°11.548 2°47.302 11.984122 3.920117 34.039932 62.96323
2004-05-06 08:29:15 51°11.551 2°47.306 11.984214 3.920433 34.042276 62.558717
2004-05-06 08:29:20 51°11.555 2°47.311 11.98394 3.920539 34.04186 62.322751
2004-05-06 08:29:26 51°11.56 2°47.316 11.986034 3.920117 34.037777 62.053076
2004-05-06 08:29:28 51°11.562 2°47.319 11.986398 3.919906 34.035735 61.446306
2004-05-06 08:29:35 51°11.568 2°47.326 11.986307 3.920222 34.038798 60.805828
2004-05-06 08:29:40 51°11.573 2°47.332 11.986307 3.920222 34.038798 60.805828
2004-05-06 08:29:46 51°11.579 2°47.34 11.984851 3.919801 34.034714 60.064221
2004-05-06 08:29:50 51°11.583 2°47.345 11.986898 3.920539 34.042579 59.120358
2004-05-06 08:29:55 51°11.589 2°47.351 11.986034 3.92096 34.045944 58.749554
2004-05-06 08:30:00 51°11.594 2°47.358 11.986671 3.91959 34.031955 58.41246
2004-05-06 08:30:06 51°11.601 2°47.365 11.982757 3.921593 34.050632 57.434888
2004-05-06 08:30:08 51°11.604 2°47.368 11.982757 3.921593 34.050632 57.434888
2004-05-06 08:30:15 51°11.612 2°47.376 11.984851 3.920539 34.041142 56.72699
2004-05-06 08:30:20 51°11.617 2°47.382 11.987262 3.921171 34.045112 56.457315
2004-05-06 08:30:25 51°11.623 2°47.388 11.987171 3.919801 34.03256 55.816836
2004-05-06 08:30:30 51°11.628 2°47.394 11.99022 3.920539 34.040424 56.120221
2004-05-06 08:30:36 51°11.634 2°47.401 11.987626 3.920855 34.044923 56.356187
2004-05-06 08:30:40 51°11.638 2°47.406 11.987626 3.920855 34.044923 56.356187
2004-05-06 08:30:44 51°11.642 2°47.41 11.989629 3.919906 34.035735 56.221349
2004-05-06 08:30:50 51°11.648 2°47.418 11.991312 3.920328 34.0391 55.917965
2004-05-06 08:30:56 51°11.653 2°47.425 11.987763 3.920855 34.043486 55.446033
2004-05-06 08:31:00 51°11.656 2°47.43 11.98658 3.920433 34.037967 55.142648
2004-05-06 08:31:06 51°11.661 2°47.438 11.988855 3.920855 34.041332 54.097657
2004-05-06 08:31:10 51°11.665 2°47.443 11.988855 3.920855 34.041332 54.097657
2004-05-06 08:31:15 51°11.668 2°47.449 11.987399 3.921066 34.043373 53.389759
2004-05-06 08:31:20 51°11.672 2°47.456 11.986671 3.921276 34.044697 52.445896
2004-05-06 08:31:24 51°11.675 2°47.461 11.986898 3.921066 34.042655 52.075093
2004-05-06 08:31:29 51°11.679 2°47.468 11.984942 3.920117 34.034187 51.906546
2004-05-06 08:31:36 51°11.684 2°47.477 11.985169 3.920644 34.03929 52.041383
2004-05-06 08:31:39 51°11.686 2°47.481 11.985169 3.920644 34.03929 52.041383
2004-05-06 08:31:44 51°11.689 2°47.488 11.986216 3.920644 34.03929 52.108802
2004-05-06 08:31:50 51°11.693 2°47.496 11.983485 3.920328 34.036946 52.513315
2004-05-06 08:31:55 51°11.697 2°47.502 11.982848 3.920749 34.041747 52.951537
2004-05-06 08:31:59 51°11.699 2°47.508 11.981802 3.920855 34.042768 53.389759
2004-05-06 08:32:04 51°11.703 2°47.514 11.98162 3.920328 34.038382 53.35605
2004-05-06 08:32:10 51°11.706 2°47.521 11.98162 3.920328 34.038382 53.35605
2004-05-06 08:32:15 51°11.709 2°47.528 11.979799 3.920117 34.036341 53.592016
2004-05-06 08:32:20 51°11.712 2°47.533 11.978843 3.920222 34.037361 53.996529
2004-05-06 08:32:25 51°11.715 2°47.539 11.976841 3.920222 34.039516 54.232494
2004-05-06 08:32:30 51°11.718 2°47.545 11.977023 3.920328 34.041255 54.872973
2004-05-06 08:32:35 51°11.721 2°47.55 11.975658 3.919695 34.035848 55.681999
2004-05-06 08:32:40 51°11.723 2°47.555 11.975658 3.919695 34.035848 55.681999
2004-05-06 08:32:45 51°11.726 2°47.561 11.973336 3.920012 34.039629 57.097794
2004-05-06 08:32:51 51°11.729 2°47.567 11.974747 3.920117 34.041368 58.378751
2004-05-06 08:32:55 51°11.731 2°47.57 11.976113 3.920433 34.044431 59.457452
2004-05-06 08:33:00 51°11.734 2°47.575 11.97452 3.919906 34.041481 60.536153
2004-05-06 08:33:03 51°11.735 2°47.578 11.974656 3.919484 34.037397 60.772118
2004-05-06 08:33:08 51°11.738 2°47.583 11.974656 3.919484 34.037397 60.772118
2004-05-06 08:33:15 51°11.742 2°47.589 11.974747 3.919063 34.035468 61.109212
2004-05-06 08:33:20 51°11.744 2°47.593 11.974429 3.919274 34.036073 61.311469
2004-05-06 08:33:24 51°11.746 2°47.597 11.975385 3.91959 34.039136 61.81711
2004-05-06 08:33:30 51°11.749 2°47.602 11.975294 3.919063 34.03475 61.480016
2004-05-06 08:33:35 51°11.751 2°47.606 11.977251 3.919063 34.035468 61.985657
2004-05-06 08:33:40 51°11.753 2°47.61 11.977251 3.919063 34.035468 61.985657
2004-05-06 08:33:44 51°11.755 2°47.614 11.975203 3.919801 34.041897 61.850819
2004-05-06 08:33:50 51°11.757 2°47.619 11.97807 3.919484 34.039552 61.513725
2004-05-06 08:33:55 51°11.759 2°47.623 11.978843 3.91959 34.039855 60.738409
2004-05-06 08:34:00 51°11.761 2°47.628 11.9803 3.920012 34.043221 59.592289
2004-05-06 08:34:06 51°11.763 2°47.633 11.9803 3.920012 34.043221 59.592289
2004-05-06 08:34:10 51°11.764 2°47.636 11.981529 3.91959 34.038418 58.513589
2004-05-06 08:34:15 51°11.766 2°47.64 11.981893 3.919906 34.042199 57.738272
2004-05-06 08:34:20 51°11.768 2°47.645 11.981529 3.919801 34.039023 57.30005
2004-05-06 08:34:25 51°11.769 2°47.649 11.981984 3.920222 34.043107 57.232631
2004-05-06 08:34:31 51°11.771 2°47.654 11.979435 3.919484 34.035242 56.794409
2004-05-06 08:34:36 51°11.772 2°47.658 11.981392 3.920855 34.047796 56.895537
2004-05-06 08:34:39 51°11.773 2°47.661 11.981392 3.920855 34.047796 56.895537
2004-05-06 08:34:44 51°11.774 2°47.665 11.982029 3.920328 34.041973 57.434888
2004-05-06 08:34:51 51°11.776 2°47.671 11.983121 3.920328 34.041973 57.974238
2004-05-06 08:34:55 51°11.777 2°47.675 11.983986 3.921593 34.054225 59.154067
2004-05-06 08:35:00 51°11.778 2°47.679 11.982985 3.920644 34.045036 59.895674
2004-05-06 08:35:04 51°11.779 2°47.683 11.984259 3.92096 34.048099 60.165349
2004-05-06 08:35:11 51°11.781 2°47.689 11.984259 3.92096 34.048099 60.165349
2004-05-06 08:35:15 51°11.782 2°47.693 11.984851 3.921171 34.049422 60.637281
2004-05-06 08:35:20 51°11.783 2°47.697 11.985078 3.92096 34.045944 60.67099
2004-05-06 08:35:24 51°11.784 2°47.701 11.986307 3.920433 34.040839 61.412597
2004-05-06 08:35:30 51°11.786 2°47.706 11.986307 3.920539 34.04186 62.187913
2004-05-06 08:35:35 51°11.788 2°47.71 11.98567 3.921487 34.051048 63.536289
2004-05-06 08:35:40 51°11.79 2°47.715 11.98567 3.921487 34.051048 63.536289
2004-05-06 08:35:45 51°11.792 2°47.719 11.987444 3.922436 34.0588 64.210477
2004-05-06 08:35:50 51°11.793 2°47.723 11.988491 3.921487 34.049612 65.221759
2004-05-06 08:35:55 51°11.795 2°47.727 11.992177 3.921276 34.046852 66.33417
2004-05-06 08:36:00 51°11.797 2°47.731 11.993314 3.921803 34.050519 66.806101
2004-05-06 08:36:04 51°11.799 2°47.734 11.997682 3.921593 34.049914 67.44658
2004-05-06 08:36:10 51°11.801 2°47.739 11.997682 3.921593 34.049914 67.44658
2004-05-06 08:36:15 51°11.804 2°47.743 12.00164 3.92212 34.0543 67.952221
2004-05-06 08:36:20 51°11.806 2°47.747 12.00296 3.921803 34.049801 67.480289
2004-05-06 08:36:25 51°11.808 2°47.751 12.005917 3.922014 34.050406 66.30046
2004-05-06 08:36:30 51°11.811 2°47.755 12.007463 3.92233 34.051313 65.053212
2004-05-06 08:36:35 51°11.813 2°47.759 12.010056 3.922752 34.052523 63.704836
2004-05-06 08:36:40 51°11.816 2°47.763 12.010056 3.922752 34.052523 63.704836
2004-05-06 08:36:44 51°11.818 2°47.767 12.013786 3.922857 34.050671 61.682272
2004-05-06 08:36:50 51°11.822 2°47.772 12.014878 3.922436 34.045153 59.861965
2004-05-06 08:36:55 51°11.824 2°47.776 12.016834 3.92233 34.041261 57.805691
2004-05-06 08:37:00 51°11.827 2°47.78 12.021928 3.922647 34.042169 56.389896
2004-05-06 08:37:04 51°11.83 2°47.783 12.021928 3.922647 34.042169 56.389896
2004-05-06 08:37:10 51°11.833 2°47.788 12.021473 3.922647 34.039298 54.872973
2004-05-06 08:37:16 51°11.837 2°47.793 12.023292 3.922963 34.040923 53.254922
2004-05-06 08:37:20 51°11.839 2°47.796 12.02493 3.923701 34.046629 52.007674
2004-05-06 08:37:25 51°11.842 2°47.801 12.02452 3.924017 34.046819 50.693007
2004-05-06 08:37:31 51°11.846 2°47.806 12.023065 3.923701 34.041606 49.614306
2004-05-06 08:37:36 51°11.849 2°47.81 12.023793 3.924228 34.045271 48.434477
2004-05-06 08:37:40 51°11.851 2°47.813 12.023793 3.924228 34.045271 48.434477
2004-05-06 08:37:45 51°11.854 2°47.818 12.022701 3.924333 34.044139 47.692871
2004-05-06 08:37:49 51°11.857 2°47.822 12.022656 3.922646 34.026386 46.951264
2004-05-06 08:37:55 51°11.86 2°47.827 12.022201 3.923279 34.033222 46.749007
2004-05-06 08:38:00 51°11.863 2°47.832 12.021109 3.925493 34.054641 47.288358
2004-05-06 08:38:05 51°11.865 2°47.837 12.02211 3.924228 34.041684 47.760289
2004-05-06 08:38:10 51°11.868 2°47.842 12.02211 3.924228 34.041684 47.760289
2004-05-06 08:38:15 51°11.87 2°47.847 12.022838 3.92602 34.059024 48.26593
2004-05-06 08:38:20 51°11.873 2°47.852 12.0212 3.925387 34.053621 48.737862
2004-05-06 08:38:25 51°11.875 2°47.857 12.0212 3.925176 34.052299 49.344631
2004-05-06 08:38:30 51°11.877 2°47.862 12.019381 3.925809 34.057701 49.850272
2004-05-06 08:38:35 51°11.879 2°47.868 12.020473 3.925703 34.056681 50.693007
2004-05-06 08:38:40 51°11.881 2°47.874 12.020473 3.925703 34.056681 50.693007
2004-05-06 08:38:45 51°11.883 2°47.879 12.021109 3.925809 34.057701 51.805418
2004-05-06 08:38:50 51°11.885 2°47.885 12.018744 3.925703 34.056681 52.614443
2004-05-06 08:38:55 51°11.887 2°47.89 12.017926 3.926125 34.062197 53.760563
2004-05-06 08:39:00 51°11.888 2°47.896 12.017198 3.924438 34.045159 54.670717
2004-05-06 08:39:03 51°11.889 2°47.9 12.017562 3.926968 34.06964 55.513452
2004-05-06 08:39:10 51°11.892 2°47.908 12.017562 3.926968 34.06964 55.513452
2004-05-06 08:39:15 51°11.894 2°47.913 12.020018 3.926652 34.06658 56.558443
2004-05-06 08:39:19 51°11.895 2°47.918 12.017289 3.92739 34.073721 58.109076
2004-05-06 08:39:25 51°11.897 2°47.925 12.014241 3.927179 34.073835 58.98552
2004-05-06 08:39:30 51°11.899 2°47.931 12.012604 3.926968 34.073231 59.524871
2004-05-06 08:39:35 51°11.9 2°47.937 12.015378 3.925809 34.061291 59.963093
2004-05-06 08:39:40 51°11.902 2°47.943 12.015378 3.925809 34.061291 59.963093
2004-05-06 08:39:44 51°11.903 2°47.947 12.013377 3.926441 34.066693 60.873247
2004-05-06 08:39:50 51°11.905 2°47.954 12.011148 3.927496 34.07905 61.547435
2004-05-06 08:39:55 51°11.907 2°47.96 12.013377 3.923595 34.042739 62.187913
2004-05-06 08:40:00 51°11.909 2°47.965 12.014332 3.927601 34.082225 62.794683
2004-05-06 08:40:04 51°11.91 2°47.97 12.013241 3.917797 33.987355 63.367742
2004-05-06 08:40:10 51°11.913 2°47.976 12.013241 3.917797 33.987355 63.367742
2004-05-06 08:40:15 51°11.915 2°47.982 12.015924 3.923911 34.047234 64.345315
2004-05-06 08:40:20 51°11.917 2°47.988 12.019608 3.922119 34.029892 65.997076
2004-05-06 08:40:25 51°11.919 2°47.993 12.021564 3.917903 33.989091 66.772392
2004-05-06 08:40:30 51°11.921 2°47.998 12.021746 3.928128 34.088046 67.581418
2004-05-06 08:40:35 51°11.923 2°48.004 12.024657 3.927496 34.081924 67.412871
2004-05-06 08:40:40 51°11.925 2°48.009 12.024657 3.927496 34.081924 67.412871
2004-05-06 08:40:45 51°11.927 2°48.014 12.027567 3.927812 34.083548 67.109486
2004-05-06 08:40:50 51°11.929 2°48.019 12.029523 3.927917 34.083131 66.536426
2004-05-06 08:40:55 51°11.932 2°48.024 12.030114 3.928023 34.081996 66.199332
2004-05-06 08:41:00 51°11.934 2°48.029 12.030387 3.928128 34.082298 65.356597
2004-05-06 08:41:04 51°11.936 2°48.033 12.030387 3.928128 34.082298 65.356597
2004-05-06 08:41:10 51°11.939 2°48.039 12.033297 3.928023 34.079123 64.143059
2004-05-06 08:41:15 51°11.941 2°48.044 12.036799 3.927601 34.07217 63.030648
2004-05-06 08:41:20 51°11.944 2°48.048 12.036117 3.927706 34.072473 62.086785
2004-05-06 08:41:26 51°11.947 2°48.054 12.040073 3.927601 34.069299 60.772118
2004-05-06 08:41:30 51°11.949 2°48.058 12.040982 3.928233 34.075418 59.524871
2004-05-06 08:41:35 51°11.951 2°48.063 12.043664 3.928022 34.069789 58.176494
2004-05-06 08:41:40 51°11.954 2°48.067 12.043664 3.928022 34.069789 58.176494
2004-05-06 08:41:43 51°11.955 2°48.071 12.046847 3.927917 34.068052 57.198922
2004-05-06 08:41:50 51°11.959 2°48.077 12.047847 3.928339 34.070695 55.985383
2004-05-06 08:41:56 51°11.961 2°48.083 12.047211 3.928233 34.067523 54.940392
2004-05-06 08:42:00 51°11.963 2°48.087 12.044847 3.928339 34.067107 53.8954
2004-05-06 08:42:05 51°11.966 2°48.092 12.04662 3.927917 34.060876 52.412187
2004-05-06 08:42:10 51°11.968 2°48.098 12.04662 3.927917 34.060876 52.412187
2004-05-06 08:42:15 51°11.97 2°48.103 12.04662 3.927074 34.049851 51.872836
2004-05-06 08:42:20 51°11.972 2°48.108 12.045756 3.928549 34.062689 51.603161
2004-05-06 08:42:25 51°11.974 2°48.113 12.044119 3.928444 34.06167 52.041383
2004-05-06 08:42:30 51°11.976 2°48.119 12.044528 3.92876 34.065446 52.749281
2004-05-06 08:42:35 51°11.978 2°48.124 12.043073 3.928022 34.058309 53.490888
2004-05-06 08:42:40 51°11.98 2°48.129 12.043073 3.928022 34.058309 53.490888
2004-05-06 08:42:45 51°11.982 2°48.135 12.0418 3.927706 34.054533 54.266204
2004-05-06 08:42:50 51°11.984 2°48.14 12.043346 3.927706 34.055251 55.547161
2004-05-06 08:42:55 51°11.985 2°48.146 12.042482 3.926652 34.045056 57.266341
2004-05-06 08:43:00 51°11.987 2°48.152 12.044574 3.928339 34.062085 58.41246
2004-05-06 08:43:05 51°11.989 2°48.157 12.042846 3.927179 34.052305 60.266477
2004-05-06 08:43:10 51°11.99 2°48.163 12.042846 3.927179 34.052305 60.266477
2004-05-06 08:43:15 51°11.992 2°48.169 12.040936 3.927495 34.055363 61.7834
2004-05-06 08:43:19 51°11.993 2°48.174 12.042482 3.927495 34.05608 62.895811
2004-05-06 08:43:25 51°11.994 2°48.181 12.042255 3.927495 34.054646 64.412734
2004-05-06 08:43:30 51°11.996 2°48.186 12.041118 3.927179 34.05087 65.18805
2004-05-06 08:43:35 51°11.997 2°48.192 12.0403 3.92739 34.054344 65.963366
2004-05-06 08:43:40 51°11.998 2°48.198 12.0403 3.92739 34.054344 65.963366
2004-05-06 08:43:45 51°12 2°48.204 12.039481 3.926757 34.049661 67.513999
2004-05-06 08:43:50 51°12.001 2°48.209 12.038345 3.927074 34.052002 68.356734
2004-05-06 08:43:55 51°12.003 2°48.215 12.037026 3.926968 34.050983 68.154477
2004-05-06 08:44:00 51°12.005 2°48.22 12.036299 3.927284 34.054759 68.188187
2004-05-06 08:44:04 51°12.006 2°48.224 12.037663 3.926757 34.050378 68.188187
2004-05-06 08:44:10 51°12.009 2°48.23 12.037663 3.926757 34.050378 68.188187
2004-05-06 08:44:15 51°12.011 2°48.235 12.038936 3.927074 34.054154 68.154477
2004-05-06 08:44:19 51°12.012 2°48.239 12.041118 3.926968 34.053852 68.188187
2004-05-06 08:44:26 51°12.016 2°48.246 12.044756 3.926019 34.045392 68.154477
2004-05-06 08:44:30 51°12.018 2°48.249 12.050348 3.926652 34.052227 68.120768
2004-05-06 08:44:36 51°12.02 2°48.255 12.050348 3.926652 34.052227 68.120768
2004-05-06 08:44:40 51°12.022 2°48.259 12.052439 3.926547 34.051208 68.154477
2004-05-06 08:44:44 51°12.024 2°48.263 12.05453 3.926441 34.048036 68.154477
2004-05-06 08:44:50 51°12.027 2°48.269 12.057439 3.925703 34.040899 68.154477
2004-05-06 08:44:55 51°12.029 2°48.274 12.061121 3.925914 34.040071 68.120768
2004-05-06 08:45:00 51°12.031 2°48.279 12.063121 3.925176 34.030068 68.154477
2004-05-06 08:45:03 51°12.033 2°48.282 12.063348 3.926125 34.035658 68.188187
2004-05-06 08:45:10 51°12.036 2°48.289 12.063348 3.926125 34.035658 68.188187
2004-05-06 08:45:15 51°12.038 2°48.294 12.063985 3.926125 34.034225 68.221896
2004-05-06 08:45:20 51°12.04 2°48.299 12.063803 3.92623 34.031661 68.424153
2004-05-06 08:45:24 51°12.042 2°48.303 12.064439 3.92623 34.030229 67.412871
2004-05-06 08:45:30 51°12.044 2°48.309 12.065212 3.926757 34.031742 65.997076
2004-05-06 08:45:36 51°12.047 2°48.316 12.063712 3.927179 34.035818 65.019503
2004-05-06 08:45:40 51°12.048 2°48.32 12.063712 3.927179 34.035818 65.019503
2004-05-06 08:45:45 51°12.05 2°48.326 12.061712 3.926862 34.031328 64.210477
2004-05-06 08:45:50 51°12.052 2°48.331 12.062848 3.926652 34.02929 64.244187
2004-05-06 08:45:55 51°12.053 2°48.336 12.058303 3.925703 34.018688 64.850956
2004-05-06 08:46:00 51°12.055 2°48.342 12.057712 3.926862 34.029896 65.525144
2004-05-06 08:46:05 51°12.057 2°48.348 12.057439 3.926546 34.027555 66.90723
2004-05-06 08:46:10 51°12.058 2°48.353 12.057439 3.926546 34.027555 66.90723
2004-05-06 08:46:15 51°12.06 2°48.359 12.058076 3.926652 34.02929 68.289315
2004-05-06 08:46:20 51°12.062 2°48.364 12.057212 3.926441 34.027252 68.188187
2004-05-06 08:46:25 51°12.064 2°48.369 12.054894 3.926652 34.030723 68.188187
2004-05-06 08:46:30 51°12.066 2°48.374 12.055257 3.926019 34.025325 68.188187
2004-05-06 08:46:35 51°12.068 2°48.379 12.05453 3.926019 34.027474 68.120768
2004-05-06 08:46:40 51°12.07 2°48.384 12.05453 3.926019 34.027474 68.120768
2004-05-06 08:46:44 51°12.072 2°48.388 12.056621 3.925598 34.022682 68.154477
2004-05-06 08:46:50 51°12.074 2°48.394 12.05903 3.92507 34.019019 68.120768
2004-05-06 08:46:55 51°12.077 2°48.399 12.062621 3.925808 34.026869 68.154477
2004-05-06 08:47:00 51°12.079 2°48.403 12.064439 3.92117 33.982033 68.120768
2004-05-06 08:47:04 51°12.081 2°48.407 12.067803 3.92486 34.018413 68.120768
2004-05-06 08:47:10 51°12.084 2°48.411 12.067803 3.92486 34.018413 68.120768
2004-05-06 08:47:15 51°12.087 2°48.416 12.072211 3.924649 34.015659 68.154477
2004-05-06 08:47:20 51°12.09 2°48.42 12.074438 3.925281 34.020341 68.120768
2004-05-06 08:47:25 51°12.093 2°48.424 12.078301 3.925281 34.017476 68.154477
2004-05-06 08:47:30 51°12.095 2°48.428 12.080436 3.925808 34.021139 68.120768
2004-05-06 08:47:35 51°12.098 2°48.432 12.082209 3.925808 34.017559 68.154477
2004-05-06 08:47:40 51°12.101 2°48.436 12.082209 3.925808 34.017559 68.154477
2004-05-06 08:47:46 51°12.104 2°48.442 12.083799 3.926124 34.019183 68.120768
2004-05-06 08:47:51 51°12.107 2°48.446 12.08757 3.926124 34.017036 68.188187
2004-05-06 08:47:56 51°12.109 2°48.45 12.088615 3.925808 34.010401 68.390443
2004-05-06 08:48:00 51°12.111 2°48.454 12.090024 3.925808 34.007539 68.424153
2004-05-06 08:48:05 51°12.114 2°48.459 12.09275 3.926124 34.008448 68.255606
2004-05-06 08:48:10 51°12.116 2°48.463 12.09275 3.926124 34.008448 68.255606
2004-05-06 08:48:16 51°12.119 2°48.469 12.092841 3.925913 34.004981 66.502717
2004-05-06 08:48:20 51°12.121 2°48.473 12.094431 3.926441 34.007926 65.592563
2004-05-06 08:48:25 51°12.123 2°48.478 12.09543 3.926335 34.006193 64.985794
2004-05-06 08:48:30 51°12.125 2°48.483 12.09384 3.926651 34.006387 64.277896
2004-05-06 08:48:35 51°12.126 2°48.489 12.09384 3.926651 34.006387 64.277896
2004-05-06 08:48:40 51°12.128 2°48.494 12.096611 3.92644 34.00149 64.952084
2004-05-06 08:48:44 51°12.13 2°48.498 12.098701 3.92644 34.00149 66.165623
2004-05-06 08:48:50 51°12.132 2°48.504 12.098338 3.926862 34.003417 67.143195
2004-05-06 08:48:55 51°12.134 2°48.51 12.100564 3.926546 34.000363 68.457862
2004-05-06 08:49:00 51°12.136 2°48.515 12.101518 3.92644 33.99863 68.188187
2004-05-06 08:49:03 51°12.137 2°48.518 12.101972 3.926546 33.998218 68.221896
2004-05-06 08:49:10 51°12.14 2°48.526 12.101972 3.926546 33.998218 68.221896
2004-05-06 08:49:15 51°12.141 2°48.531 12.102744 3.926019 33.992413 68.120768
2004-05-06 08:49:19 51°12.143 2°48.536 12.102926 3.926651 33.997806 68.188187
2004-05-06 08:49:25 51°12.145 2°48.542 12.104016 3.927389 34.004217 68.154477
2004-05-06 08:49:30 51°12.146 2°48.548 12.10556 3.926546 33.995359 68.120768
2004-05-06 08:49:35 51°12.148 2°48.553 12.105515 3.925386 33.982733 68.120768
2004-05-06 08:49:40 51°12.15 2°48.559 12.105515 3.925386 33.982733 68.120768
2004-05-06 08:49:44 51°12.151 2°48.563 12.106605 3.926546 33.993215 68.120768
2004-05-06 08:49:50 51°12.153 2°48.57 12.107105 3.926335 33.991179 68.087059
2004-05-06 08:49:56 51°12.155 2°48.577 12.108422 3.926335 33.98975 68.154477
2004-05-06 08:50:00 51°12.156 2°48.581 12.110375 3.925597 33.981911 68.154477
2004-05-06 08:50:05 51°12.158 2°48.587 12.109648 3.925597 33.981196 68.120768
2004-05-06 08:50:11 51°12.16 2°48.593 12.109648 3.925597 33.981196 68.120768
2004-05-06 08:50:16 51°12.162 2°48.599 12.111011 3.926335 33.988321 68.087059
2004-05-06 08:50:20 51°12.163 2°48.603 12.111602 3.926124 33.984142 68.087059
2004-05-06 08:50:25 51°12.165 2°48.609 12.112964 3.925702 33.979357 68.087059
2004-05-06 08:50:30 51°12.167 2°48.614 12.115371 3.925386 33.97559 68.087059
2004-05-06 08:50:35 51°12.168 2°48.62 12.113782 3.926229 33.982303 68.120768
2004-05-06 08:50:40 51°12.17 2°48.625 12.113782 3.926229 33.982303 68.120768
2004-05-06 08:50:46 51°12.172 2°48.632 12.11519 3.925702 33.977929 68.087059
2004-05-06 08:50:50 51°12.174 2°48.636 12.116052 3.92507 33.971109 68.120768
2004-05-06 08:50:55 51°12.175 2°48.642 12.118051 3.925808 33.977518 68.087059
2004-05-06 08:51:00 51°12.177 2°48.648 12.119095 3.926335 33.980463 68.053349
2004-05-06 08:51:05 51°12.178 2°48.653 12.120776 3.926546 33.982498 68.120768
2004-05-06 08:51:10 51°12.18 2°48.659 12.120776 3.926546 33.982498 68.120768
2004-05-06 08:51:15 51°12.182 2°48.665 12.119913 3.926651 33.982802 68.087059
2004-05-06 08:51:19 51°12.183 2°48.669 12.120412 3.925491 33.970181 68.053349
2004-05-06 08:51:26 51°12.185 2°48.677 12.12232 3.926967 33.983712 68.087059
2004-05-06 08:51:30 51°12.187 2°48.682 12.121502 3.92644 33.977911 68.087059
2004-05-06 08:51:35 51°12.189 2°48.687 12.120912 3.925702 33.969361 68.053349
2004-05-06 08:51:40 51°12.19 2°48.693 12.120912 3.925702 33.969361 68.053349
2004-05-06 08:51:45 51°12.192 2°48.699 12.122002 3.925281 33.964578 68.087059
2004-05-06 08:51:50 51°12.194 2°48.704 12.122592 3.925386 33.965595 68.053349
2004-05-06 08:51:55 51°12.195 2°48.71 12.124545 3.925808 33.968951 68.120768
2004-05-06 08:52:00 51°12.197 2°48.715 12.124772 3.926018 33.970272 68.053349
2004-05-06 08:52:06 51°12.199 2°48.722 12.124772 3.926018 33.970272 68.053349
2004-05-06 08:52:10 51°12.201 2°48.726 12.126225 3.925491 33.965899 68.087059
2004-05-06 08:52:15 51°12.202 2°48.732 12.126361 3.925913 33.968541 68.087059
2004-05-06 08:52:20 51°12.204 2°48.738 12.12786 3.924226 33.951551 68.087059
2004-05-06 08:52:24 51°12.206 2°48.742 12.12786 3.92528 33.962437 68.087059
2004-05-06 08:52:30 51°12.208 2°48.749 12.129313 3.925702 33.965079 68.053349
2004-05-06 08:52:35 51°12.21 2°48.754 12.132083 3.926124 33.968434 68.087059
2004-05-06 08:52:40 51°12.212 2°48.76 12.132083 3.926124 33.968434 68.087059
2004-05-06 08:52:45 51°12.213 2°48.765 12.132128 3.925913 33.965686 68.053349
2004-05-06 08:52:50 51°12.215 2°48.771 12.134489 3.926229 33.967311 68.01964
2004-05-06 08:52:55 51°12.217 2°48.776 12.136714 3.92528 33.958156 68.087059